<?xml version="1.0" encoding="UTF-8" standalone="no" ?>
<gpx xmlns="http://www.topografix.com/GPX/1/1" xmlns:xsi="http://www.w3.org/2001/XMLSchema-instance" xsi:schemaLocation="http://www.topografix.com/GPX/1/1 http://www.topografix.com/GPX/1/1/gpx.xsd" version="1.1" creator="VisuGPX - https://www.visugpx.com">
  <metadata>
    <name>2020-06-24 Fontana Gallia Borgo S. Dalmazzo</name>
  </metadata>
  <trk>
    <name><![CDATA[2020-06-24 17:47:29]]></name>
    <trkseg>
      <trkpt lat="44.36283" lon="7.47317">
        <ele>626.92</ele>
        <time>2020-06-24T13:49:18Z</time>
      </trkpt>
      <trkpt lat="44.36283" lon="7.47314">
        <ele>624.51</ele>
        <time>2020-06-24T13:49:25Z</time>
      </trkpt>
      <trkpt lat="44.3628" lon="7.47304">
        <ele>618.26</ele>
        <time>2020-06-24T13:49:44Z</time>
      </trkpt>
      <trkpt lat="44.36279" lon="7.47315">
        <ele>618.26</ele>
        <time>2020-06-24T13:49:55Z</time>
      </trkpt>
      <trkpt lat="44.36276" lon="7.47337">
        <ele>629.32</ele>
        <time>2020-06-24T13:50:10Z</time>
      </trkpt>
      <trkpt lat="44.3628" lon="7.47341">
        <ele>623.55</ele>
        <time>2020-06-24T13:50:41Z</time>
      </trkpt>
      <trkpt lat="44.3628" lon="7.47339">
        <ele>626.44</ele>
        <time>2020-06-24T13:51:31Z</time>
      </trkpt>
      <trkpt lat="44.36281" lon="7.47341">
        <ele>628.84</ele>
        <time>2020-06-24T13:52:12Z</time>
      </trkpt>
      <trkpt lat="44.36279" lon="7.47343">
        <ele>631.24</ele>
        <time>2020-06-24T13:52:23Z</time>
      </trkpt>
      <trkpt lat="44.36265" lon="7.47341">
        <ele>631.72</ele>
        <time>2020-06-24T13:52:30Z</time>
      </trkpt>
      <trkpt lat="44.36263" lon="7.47342">
        <ele>631.72</ele>
        <time>2020-06-24T13:52:31Z</time>
      </trkpt>
      <trkpt lat="44.36261" lon="7.47346">
        <ele>631.72</ele>
        <time>2020-06-24T13:52:32Z</time>
      </trkpt>
      <trkpt lat="44.3626" lon="7.47349">
        <ele>631.72</ele>
        <time>2020-06-24T13:52:33Z</time>
      </trkpt>
      <trkpt lat="44.3626" lon="7.47354">
        <ele>632.2</ele>
        <time>2020-06-24T13:52:34Z</time>
      </trkpt>
      <trkpt lat="44.3626" lon="7.47359">
        <ele>632.2</ele>
        <time>2020-06-24T13:52:35Z</time>
      </trkpt>
      <trkpt lat="44.36261" lon="7.47364">
        <ele>632.68</ele>
        <time>2020-06-24T13:52:36Z</time>
      </trkpt>
      <trkpt lat="44.36262" lon="7.4737">
        <ele>632.68</ele>
        <time>2020-06-24T13:52:37Z</time>
      </trkpt>
      <trkpt lat="44.36283" lon="7.47487">
        <ele>635.57</ele>
        <time>2020-06-24T13:52:54Z</time>
      </trkpt>
      <trkpt lat="44.36287" lon="7.47516">
        <ele>635.57</ele>
        <time>2020-06-24T13:52:59Z</time>
      </trkpt>
      <trkpt lat="44.36285" lon="7.47521">
        <ele>635.57</ele>
        <time>2020-06-24T13:53:00Z</time>
      </trkpt>
      <trkpt lat="44.36281" lon="7.47524">
        <ele>635.09</ele>
        <time>2020-06-24T13:53:01Z</time>
      </trkpt>
      <trkpt lat="44.36214" lon="7.47557">
        <ele>630.76</ele>
        <time>2020-06-24T13:53:17Z</time>
      </trkpt>
      <trkpt lat="44.36185" lon="7.47571">
        <ele>632.2</ele>
        <time>2020-06-24T13:53:24Z</time>
      </trkpt>
      <trkpt lat="44.3611" lon="7.47606">
        <ele>633.65</ele>
        <time>2020-06-24T13:53:42Z</time>
      </trkpt>
      <trkpt lat="44.36105" lon="7.47607">
        <ele>634.13</ele>
        <time>2020-06-24T13:53:43Z</time>
      </trkpt>
      <trkpt lat="44.361" lon="7.47606">
        <ele>633.65</ele>
        <time>2020-06-24T13:53:44Z</time>
      </trkpt>
      <trkpt lat="44.36091" lon="7.47605">
        <ele>633.65</ele>
        <time>2020-06-24T13:53:46Z</time>
      </trkpt>
      <trkpt lat="44.36086" lon="7.47606">
        <ele>633.65</ele>
        <time>2020-06-24T13:53:47Z</time>
      </trkpt>
      <trkpt lat="44.36082" lon="7.47609">
        <ele>633.65</ele>
        <time>2020-06-24T13:53:48Z</time>
      </trkpt>
      <trkpt lat="44.36079" lon="7.47614">
        <ele>634.13</ele>
        <time>2020-06-24T13:53:49Z</time>
      </trkpt>
      <trkpt lat="44.36076" lon="7.4762">
        <ele>634.61</ele>
        <time>2020-06-24T13:53:50Z</time>
      </trkpt>
      <trkpt lat="44.36073" lon="7.47624">
        <ele>634.61</ele>
        <time>2020-06-24T13:53:51Z</time>
      </trkpt>
      <trkpt lat="44.36069" lon="7.47628">
        <ele>635.09</ele>
        <time>2020-06-24T13:53:52Z</time>
      </trkpt>
      <trkpt lat="44.36065" lon="7.47631">
        <ele>635.57</ele>
        <time>2020-06-24T13:53:53Z</time>
      </trkpt>
      <trkpt lat="44.36008" lon="7.47657">
        <ele>637.49</ele>
        <time>2020-06-24T13:54:05Z</time>
      </trkpt>
      <trkpt lat="44.35948" lon="7.47687">
        <ele>639.41</ele>
        <time>2020-06-24T13:54:18Z</time>
      </trkpt>
      <trkpt lat="44.35856" lon="7.47732">
        <ele>639.41</ele>
        <time>2020-06-24T13:54:38Z</time>
      </trkpt>
      <trkpt lat="44.35775" lon="7.47771">
        <ele>639.89</ele>
        <time>2020-06-24T13:54:56Z</time>
      </trkpt>
      <trkpt lat="44.35699" lon="7.47808">
        <ele>641.34</ele>
        <time>2020-06-24T13:55:13Z</time>
      </trkpt>
      <trkpt lat="44.35623" lon="7.47849">
        <ele>642.78</ele>
        <time>2020-06-24T13:55:30Z</time>
      </trkpt>
      <trkpt lat="44.35534" lon="7.47866">
        <ele>638.45</ele>
        <time>2020-06-24T13:55:43Z</time>
      </trkpt>
      <trkpt lat="44.35433" lon="7.47838">
        <ele>637.01</ele>
        <time>2020-06-24T13:55:57Z</time>
      </trkpt>
      <trkpt lat="44.3528" lon="7.47773">
        <ele>633.17</ele>
        <time>2020-06-24T13:56:18Z</time>
      </trkpt>
      <trkpt lat="44.35118" lon="7.47695">
        <ele>629.8</ele>
        <time>2020-06-24T13:56:40Z</time>
      </trkpt>
      <trkpt lat="44.35011" lon="7.47655">
        <ele>628.36</ele>
        <time>2020-06-24T13:56:55Z</time>
      </trkpt>
      <trkpt lat="44.34903" lon="7.47645">
        <ele>624.51</ele>
        <time>2020-06-24T13:57:09Z</time>
      </trkpt>
      <trkpt lat="44.34825" lon="7.47636">
        <ele>619.23</ele>
        <time>2020-06-24T13:57:17Z</time>
      </trkpt>
      <trkpt lat="44.34815" lon="7.47631">
        <ele>618.75</ele>
        <time>2020-06-24T13:57:18Z</time>
      </trkpt>
      <trkpt lat="44.34806" lon="7.47625">
        <ele>618.26</ele>
        <time>2020-06-24T13:57:19Z</time>
      </trkpt>
      <trkpt lat="44.34797" lon="7.47618">
        <ele>617.78</ele>
        <time>2020-06-24T13:57:20Z</time>
      </trkpt>
      <trkpt lat="44.34789" lon="7.4761">
        <ele>617.3</ele>
        <time>2020-06-24T13:57:21Z</time>
      </trkpt>
      <trkpt lat="44.34781" lon="7.47601">
        <ele>617.3</ele>
        <time>2020-06-24T13:57:22Z</time>
      </trkpt>
      <trkpt lat="44.34773" lon="7.47592">
        <ele>616.82</ele>
        <time>2020-06-24T13:57:23Z</time>
      </trkpt>
      <trkpt lat="44.34766" lon="7.47583">
        <ele>616.34</ele>
        <time>2020-06-24T13:57:24Z</time>
      </trkpt>
      <trkpt lat="44.3476" lon="7.47573">
        <ele>615.86</ele>
        <time>2020-06-24T13:57:25Z</time>
      </trkpt>
      <trkpt lat="44.34754" lon="7.47562">
        <ele>615.86</ele>
        <time>2020-06-24T13:57:26Z</time>
      </trkpt>
      <trkpt lat="44.3475" lon="7.4755">
        <ele>615.38</ele>
        <time>2020-06-24T13:57:27Z</time>
      </trkpt>
      <trkpt lat="44.34745" lon="7.47538">
        <ele>615.38</ele>
        <time>2020-06-24T13:57:28Z</time>
      </trkpt>
      <trkpt lat="44.34741" lon="7.47525">
        <ele>614.9</ele>
        <time>2020-06-24T13:57:29Z</time>
      </trkpt>
      <trkpt lat="44.34738" lon="7.47513">
        <ele>614.9</ele>
        <time>2020-06-24T13:57:30Z</time>
      </trkpt>
      <trkpt lat="44.34736" lon="7.475">
        <ele>614.42</ele>
        <time>2020-06-24T13:57:31Z</time>
      </trkpt>
      <trkpt lat="44.34735" lon="7.47487">
        <ele>613.94</ele>
        <time>2020-06-24T13:57:32Z</time>
      </trkpt>
      <trkpt lat="44.34735" lon="7.47474">
        <ele>613.94</ele>
        <time>2020-06-24T13:57:33Z</time>
      </trkpt>
      <trkpt lat="44.34725" lon="7.47347">
        <ele>611.54</ele>
        <time>2020-06-24T13:57:43Z</time>
      </trkpt>
      <trkpt lat="44.34719" lon="7.47339">
        <ele>611.06</ele>
        <time>2020-06-24T13:57:44Z</time>
      </trkpt>
      <trkpt lat="44.34711" lon="7.47332">
        <ele>610.57</ele>
        <time>2020-06-24T13:57:45Z</time>
      </trkpt>
      <trkpt lat="44.34703" lon="7.47327">
        <ele>610.09</ele>
        <time>2020-06-24T13:57:46Z</time>
      </trkpt>
      <trkpt lat="44.34694" lon="7.47325">
        <ele>610.09</ele>
        <time>2020-06-24T13:57:47Z</time>
      </trkpt>
      <trkpt lat="44.34685" lon="7.47325">
        <ele>609.61</ele>
        <time>2020-06-24T13:57:48Z</time>
      </trkpt>
      <trkpt lat="44.34677" lon="7.47326">
        <ele>609.13</ele>
        <time>2020-06-24T13:57:49Z</time>
      </trkpt>
      <trkpt lat="44.3467" lon="7.47328">
        <ele>609.13</ele>
        <time>2020-06-24T13:57:50Z</time>
      </trkpt>
      <trkpt lat="44.34597" lon="7.47351">
        <ele>610.09</ele>
        <time>2020-06-24T13:58:01Z</time>
      </trkpt>
      <trkpt lat="44.3455" lon="7.47401">
        <ele>613.46</ele>
        <time>2020-06-24T13:58:15Z</time>
      </trkpt>
      <trkpt lat="44.34527" lon="7.47469">
        <ele>616.34</ele>
        <time>2020-06-24T13:58:32Z</time>
      </trkpt>
      <trkpt lat="44.34526" lon="7.47516">
        <ele>618.26</ele>
        <time>2020-06-24T13:58:45Z</time>
      </trkpt>
      <trkpt lat="44.34528" lon="7.47582">
        <ele>624.51</ele>
        <time>2020-06-24T13:59:04Z</time>
      </trkpt>
      <trkpt lat="44.34499" lon="7.47631">
        <ele>628.84</ele>
        <time>2020-06-24T13:59:18Z</time>
      </trkpt>
      <trkpt lat="44.34461" lon="7.47669">
        <ele>634.13</ele>
        <time>2020-06-24T13:59:35Z</time>
      </trkpt>
      <trkpt lat="44.34413" lon="7.47676">
        <ele>635.09</ele>
        <time>2020-06-24T13:59:51Z</time>
      </trkpt>
      <trkpt lat="44.34362" lon="7.47648">
        <ele>634.61</ele>
        <time>2020-06-24T14:00:08Z</time>
      </trkpt>
      <trkpt lat="44.34328" lon="7.47608">
        <ele>637.01</ele>
        <time>2020-06-24T14:00:26Z</time>
      </trkpt>
      <trkpt lat="44.34293" lon="7.47574">
        <ele>637.49</ele>
        <time>2020-06-24T14:00:44Z</time>
      </trkpt>
      <trkpt lat="44.34244" lon="7.47548">
        <ele>635.57</ele>
        <time>2020-06-24T14:01:05Z</time>
      </trkpt>
      <trkpt lat="44.34196" lon="7.47552">
        <ele>638.93</ele>
        <time>2020-06-24T14:01:25Z</time>
      </trkpt>
      <trkpt lat="44.34144" lon="7.47566">
        <ele>641.82</ele>
        <time>2020-06-24T14:01:47Z</time>
      </trkpt>
      <trkpt lat="44.341" lon="7.47578">
        <ele>648.55</ele>
        <time>2020-06-24T14:02:09Z</time>
      </trkpt>
      <trkpt lat="44.34071" lon="7.47586">
        <ele>654.31</ele>
        <time>2020-06-24T14:02:25Z</time>
      </trkpt>
      <trkpt lat="44.34032" lon="7.47604">
        <ele>661.04</ele>
        <time>2020-06-24T14:02:44Z</time>
      </trkpt>
      <trkpt lat="44.3398" lon="7.47634">
        <ele>658.64</ele>
        <time>2020-06-24T14:03:02Z</time>
      </trkpt>
      <trkpt lat="44.33926" lon="7.47686">
        <ele>657.2</ele>
        <time>2020-06-24T14:03:24Z</time>
      </trkpt>
      <trkpt lat="44.33869" lon="7.47756">
        <ele>656.24</ele>
        <time>2020-06-24T14:03:44Z</time>
      </trkpt>
      <trkpt lat="44.33805" lon="7.47841">
        <ele>654.8</ele>
        <time>2020-06-24T14:04:04Z</time>
      </trkpt>
      <trkpt lat="44.3373" lon="7.47945">
        <ele>655.28</ele>
        <time>2020-06-24T14:04:25Z</time>
      </trkpt>
      <trkpt lat="44.33725" lon="7.47947">
        <ele>655.28</ele>
        <time>2020-06-24T14:04:26Z</time>
      </trkpt>
      <trkpt lat="44.33715" lon="7.47951">
        <ele>655.28</ele>
        <time>2020-06-24T14:04:28Z</time>
      </trkpt>
      <trkpt lat="44.33711" lon="7.47955">
        <ele>655.28</ele>
        <time>2020-06-24T14:04:29Z</time>
      </trkpt>
      <trkpt lat="44.33708" lon="7.47961">
        <ele>655.28</ele>
        <time>2020-06-24T14:04:30Z</time>
      </trkpt>
      <trkpt lat="44.33706" lon="7.47968">
        <ele>655.28</ele>
        <time>2020-06-24T14:04:31Z</time>
      </trkpt>
      <trkpt lat="44.33705" lon="7.47975">
        <ele>655.28</ele>
        <time>2020-06-24T14:04:32Z</time>
      </trkpt>
      <trkpt lat="44.33705" lon="7.47982">
        <ele>655.28</ele>
        <time>2020-06-24T14:04:33Z</time>
      </trkpt>
      <trkpt lat="44.33706" lon="7.47989">
        <ele>655.28</ele>
        <time>2020-06-24T14:04:34Z</time>
      </trkpt>
      <trkpt lat="44.33706" lon="7.47996">
        <ele>654.8</ele>
        <time>2020-06-24T14:04:35Z</time>
      </trkpt>
      <trkpt lat="44.33705" lon="7.48003">
        <ele>654.8</ele>
        <time>2020-06-24T14:04:36Z</time>
      </trkpt>
      <trkpt lat="44.33704" lon="7.4801">
        <ele>654.8</ele>
        <time>2020-06-24T14:04:37Z</time>
      </trkpt>
      <trkpt lat="44.33701" lon="7.48017">
        <ele>654.8</ele>
        <time>2020-06-24T14:04:38Z</time>
      </trkpt>
      <trkpt lat="44.33663" lon="7.48129">
        <ele>654.8</ele>
        <time>2020-06-24T14:04:54Z</time>
      </trkpt>
      <trkpt lat="44.33606" lon="7.48229">
        <ele>653.83</ele>
        <time>2020-06-24T14:05:10Z</time>
      </trkpt>
      <trkpt lat="44.33533" lon="7.483">
        <ele>651.91</ele>
        <time>2020-06-24T14:05:25Z</time>
      </trkpt>
      <trkpt lat="44.33527" lon="7.48303">
        <ele>651.91</ele>
        <time>2020-06-24T14:05:26Z</time>
      </trkpt>
      <trkpt lat="44.33522" lon="7.48302">
        <ele>652.39</ele>
        <time>2020-06-24T14:05:27Z</time>
      </trkpt>
      <trkpt lat="44.33517" lon="7.483">
        <ele>652.39</ele>
        <time>2020-06-24T14:05:28Z</time>
      </trkpt>
      <trkpt lat="44.33501" lon="7.48289">
        <ele>651.91</ele>
        <time>2020-06-24T14:05:31Z</time>
      </trkpt>
      <trkpt lat="44.33496" lon="7.48287">
        <ele>651.91</ele>
        <time>2020-06-24T14:05:32Z</time>
      </trkpt>
      <trkpt lat="44.3349" lon="7.48287">
        <ele>651.43</ele>
        <time>2020-06-24T14:05:33Z</time>
      </trkpt>
      <trkpt lat="44.3339" lon="7.48279">
        <ele>651.91</ele>
        <time>2020-06-24T14:05:50Z</time>
      </trkpt>
      <trkpt lat="44.33348" lon="7.48273">
        <ele>651.43</ele>
        <time>2020-06-24T14:05:58Z</time>
      </trkpt>
      <trkpt lat="44.33332" lon="7.48272">
        <ele>651.91</ele>
        <time>2020-06-24T14:06:01Z</time>
      </trkpt>
      <trkpt lat="44.33327" lon="7.4827">
        <ele>651.91</ele>
        <time>2020-06-24T14:06:02Z</time>
      </trkpt>
      <trkpt lat="44.33322" lon="7.48269">
        <ele>651.91</ele>
        <time>2020-06-24T14:06:03Z</time>
      </trkpt>
      <trkpt lat="44.33317" lon="7.48268">
        <ele>651.91</ele>
        <time>2020-06-24T14:06:04Z</time>
      </trkpt>
      <trkpt lat="44.33311" lon="7.48268">
        <ele>651.91</ele>
        <time>2020-06-24T14:06:05Z</time>
      </trkpt>
      <trkpt lat="44.33305" lon="7.48269">
        <ele>651.91</ele>
        <time>2020-06-24T14:06:06Z</time>
      </trkpt>
      <trkpt lat="44.33247" lon="7.4826">
        <ele>651.91</ele>
        <time>2020-06-24T14:06:17Z</time>
      </trkpt>
      <trkpt lat="44.33242" lon="7.4826">
        <ele>651.43</ele>
        <time>2020-06-24T14:06:18Z</time>
      </trkpt>
      <trkpt lat="44.33212" lon="7.48254">
        <ele>652.39</ele>
        <time>2020-06-24T14:06:24Z</time>
      </trkpt>
      <trkpt lat="44.33207" lon="7.48252">
        <ele>652.39</ele>
        <time>2020-06-24T14:06:25Z</time>
      </trkpt>
      <trkpt lat="44.33191" lon="7.48247">
        <ele>652.87</ele>
        <time>2020-06-24T14:06:28Z</time>
      </trkpt>
      <trkpt lat="44.3315" lon="7.48236">
        <ele>654.8</ele>
        <time>2020-06-24T14:06:36Z</time>
      </trkpt>
      <trkpt lat="44.33088" lon="7.48219">
        <ele>657.68</ele>
        <time>2020-06-24T14:06:49Z</time>
      </trkpt>
      <trkpt lat="44.33069" lon="7.48229">
        <ele>656.24</ele>
        <time>2020-06-24T14:06:55Z</time>
      </trkpt>
      <trkpt lat="44.33064" lon="7.48229">
        <ele>656.72</ele>
        <time>2020-06-24T14:06:56Z</time>
      </trkpt>
      <trkpt lat="44.3306" lon="7.4823">
        <ele>656.72</ele>
        <time>2020-06-24T14:06:57Z</time>
      </trkpt>
      <trkpt lat="44.33057" lon="7.4823">
        <ele>657.2</ele>
        <time>2020-06-24T14:06:58Z</time>
      </trkpt>
      <trkpt lat="44.33055" lon="7.4823">
        <ele>657.2</ele>
        <time>2020-06-24T14:06:59Z</time>
      </trkpt>
      <trkpt lat="44.33054" lon="7.48227">
        <ele>657.68</ele>
        <time>2020-06-24T14:07:00Z</time>
      </trkpt>
      <trkpt lat="44.33055" lon="7.48223">
        <ele>658.16</ele>
        <time>2020-06-24T14:07:01Z</time>
      </trkpt>
      <trkpt lat="44.33056" lon="7.48219">
        <ele>658.16</ele>
        <time>2020-06-24T14:07:02Z</time>
      </trkpt>
      <trkpt lat="44.33073" lon="7.48146">
        <ele>657.2</ele>
        <time>2020-06-24T14:07:16Z</time>
      </trkpt>
      <trkpt lat="44.33098" lon="7.48041">
        <ele>655.28</ele>
        <time>2020-06-24T14:07:35Z</time>
      </trkpt>
      <trkpt lat="44.33097" lon="7.48036">
        <ele>654.8</ele>
        <time>2020-06-24T14:07:36Z</time>
      </trkpt>
      <trkpt lat="44.33095" lon="7.48032">
        <ele>654.31</ele>
        <time>2020-06-24T14:07:37Z</time>
      </trkpt>
      <trkpt lat="44.33092" lon="7.4803">
        <ele>654.31</ele>
        <time>2020-06-24T14:07:38Z</time>
      </trkpt>
      <trkpt lat="44.33089" lon="7.48029">
        <ele>654.31</ele>
        <time>2020-06-24T14:07:39Z</time>
      </trkpt>
      <trkpt lat="44.33086" lon="7.48029">
        <ele>654.31</ele>
        <time>2020-06-24T14:07:40Z</time>
      </trkpt>
      <trkpt lat="44.33082" lon="7.48028">
        <ele>654.31</ele>
        <time>2020-06-24T14:07:41Z</time>
      </trkpt>
      <trkpt lat="44.33056" lon="7.48024">
        <ele>655.76</ele>
        <time>2020-06-24T14:07:48Z</time>
      </trkpt>
      <trkpt lat="44.3305" lon="7.48023">
        <ele>655.76</ele>
        <time>2020-06-24T14:07:49Z</time>
      </trkpt>
      <trkpt lat="44.33038" lon="7.48021">
        <ele>656.24</ele>
        <time>2020-06-24T14:07:52Z</time>
      </trkpt>
      <trkpt lat="44.33034" lon="7.4802">
        <ele>656.72</ele>
        <time>2020-06-24T14:07:53Z</time>
      </trkpt>
      <trkpt lat="44.3303" lon="7.48019">
        <ele>657.2</ele>
        <time>2020-06-24T14:07:54Z</time>
      </trkpt>
      <trkpt lat="44.33027" lon="7.48019">
        <ele>657.68</ele>
        <time>2020-06-24T14:07:55Z</time>
      </trkpt>
      <trkpt lat="44.33024" lon="7.48018">
        <ele>658.16</ele>
        <time>2020-06-24T14:07:56Z</time>
      </trkpt>
      <trkpt lat="44.33001" lon="7.47998">
        <ele>659.6</ele>
        <time>2020-06-24T14:08:05Z</time>
      </trkpt>
      <trkpt lat="44.33" lon="7.47937">
        <ele>663.93</ele>
        <time>2020-06-24T14:08:20Z</time>
      </trkpt>
      <trkpt lat="44.33003" lon="7.47883">
        <ele>667.77</ele>
        <time>2020-06-24T14:08:34Z</time>
      </trkpt>
      <trkpt lat="44.33014" lon="7.47828">
        <ele>673.06</ele>
        <time>2020-06-24T14:08:47Z</time>
      </trkpt>
      <trkpt lat="44.33019" lon="7.47755">
        <ele>675.46</ele>
        <time>2020-06-24T14:08:59Z</time>
      </trkpt>
      <trkpt lat="44.33026" lon="7.47691">
        <ele>671.62</ele>
        <time>2020-06-24T14:09:11Z</time>
      </trkpt>
      <trkpt lat="44.3305" lon="7.4763">
        <ele>668.73</ele>
        <time>2020-06-24T14:09:22Z</time>
      </trkpt>
      <trkpt lat="44.33097" lon="7.47578">
        <ele>666.81</ele>
        <time>2020-06-24T14:09:35Z</time>
      </trkpt>
      <trkpt lat="44.33105" lon="7.47567">
        <ele>666.81</ele>
        <time>2020-06-24T14:09:38Z</time>
      </trkpt>
      <trkpt lat="44.33108" lon="7.47563">
        <ele>666.81</ele>
        <time>2020-06-24T14:09:39Z</time>
      </trkpt>
      <trkpt lat="44.3311" lon="7.47556">
        <ele>665.85</ele>
        <time>2020-06-24T14:09:40Z</time>
      </trkpt>
      <trkpt lat="44.33112" lon="7.4755">
        <ele>665.37</ele>
        <time>2020-06-24T14:09:41Z</time>
      </trkpt>
      <trkpt lat="44.33114" lon="7.47544">
        <ele>664.89</ele>
        <time>2020-06-24T14:09:42Z</time>
      </trkpt>
      <trkpt lat="44.33116" lon="7.4745">
        <ele>666.33</ele>
        <time>2020-06-24T14:09:57Z</time>
      </trkpt>
      <trkpt lat="44.33105" lon="7.47371">
        <ele>664.89</ele>
        <time>2020-06-24T14:10:12Z</time>
      </trkpt>
      <trkpt lat="44.33105" lon="7.4728">
        <ele>661.52</ele>
        <time>2020-06-24T14:10:28Z</time>
      </trkpt>
      <trkpt lat="44.33106" lon="7.4723">
        <ele>663.45</ele>
        <time>2020-06-24T14:10:42Z</time>
      </trkpt>
      <trkpt lat="44.33104" lon="7.47226">
        <ele>664.89</ele>
        <time>2020-06-24T14:10:45Z</time>
      </trkpt>
      <trkpt lat="44.33103" lon="7.47227">
        <ele>664.89</ele>
        <time>2020-06-24T14:10:46Z</time>
      </trkpt>
      <trkpt lat="44.33102" lon="7.47227">
        <ele>665.37</ele>
        <time>2020-06-24T14:10:47Z</time>
      </trkpt>
      <trkpt lat="44.331" lon="7.47227">
        <ele>665.37</ele>
        <time>2020-06-24T14:10:48Z</time>
      </trkpt>
      <trkpt lat="44.33099" lon="7.47227">
        <ele>665.85</ele>
        <time>2020-06-24T14:10:49Z</time>
      </trkpt>
      <trkpt lat="44.33098" lon="7.47228">
        <ele>666.33</ele>
        <time>2020-06-24T14:10:50Z</time>
      </trkpt>
      <trkpt lat="44.33081" lon="7.47229">
        <ele>670.18</ele>
        <time>2020-06-24T14:11:04Z</time>
      </trkpt>
      <trkpt lat="44.33061" lon="7.47225">
        <ele>672.1</ele>
        <time>2020-06-24T14:11:19Z</time>
      </trkpt>
      <trkpt lat="44.33068" lon="7.47218">
        <ele>673.54</ele>
        <time>2020-06-24T14:11:30Z</time>
      </trkpt>
      <trkpt lat="44.33086" lon="7.47203">
        <ele>677.87</ele>
        <time>2020-06-24T14:11:47Z</time>
      </trkpt>
      <trkpt lat="44.33085" lon="7.472">
        <ele>677.87</ele>
        <time>2020-06-24T14:11:49Z</time>
      </trkpt>
      <trkpt lat="44.33085" lon="7.47199">
        <ele>677.87</ele>
        <time>2020-06-24T14:11:50Z</time>
      </trkpt>
      <trkpt lat="44.33077" lon="7.47198">
        <ele>680.75</ele>
        <time>2020-06-24T14:12:02Z</time>
      </trkpt>
      <trkpt lat="44.33075" lon="7.472">
        <ele>681.23</ele>
        <time>2020-06-24T14:12:04Z</time>
      </trkpt>
      <trkpt lat="44.33056" lon="7.47197">
        <ele>682.19</ele>
        <time>2020-06-24T14:12:18Z</time>
      </trkpt>
      <trkpt lat="44.33037" lon="7.47179">
        <ele>687.48</ele>
        <time>2020-06-24T14:12:34Z</time>
      </trkpt>
      <trkpt lat="44.33035" lon="7.47177">
        <ele>688.92</ele>
        <time>2020-06-24T14:12:37Z</time>
      </trkpt>
      <trkpt lat="44.33034" lon="7.47177">
        <ele>689.4</ele>
        <time>2020-06-24T14:12:38Z</time>
      </trkpt>
      <trkpt lat="44.33021" lon="7.4718">
        <ele>690.36</ele>
        <time>2020-06-24T14:12:52Z</time>
      </trkpt>
      <trkpt lat="44.33009" lon="7.47197">
        <ele>689.88</ele>
        <time>2020-06-24T14:13:06Z</time>
      </trkpt>
      <trkpt lat="44.33008" lon="7.47199">
        <ele>689.4</ele>
        <time>2020-06-24T14:13:07Z</time>
      </trkpt>
      <trkpt lat="44.33007" lon="7.472">
        <ele>689.88</ele>
        <time>2020-06-24T14:13:08Z</time>
      </trkpt>
      <trkpt lat="44.32987" lon="7.472">
        <ele>689.4</ele>
        <time>2020-06-24T14:13:20Z</time>
      </trkpt>
      <trkpt lat="44.32981" lon="7.472">
        <ele>688.92</ele>
        <time>2020-06-24T14:13:21Z</time>
      </trkpt>
      <trkpt lat="44.32949" lon="7.47189">
        <ele>690.36</ele>
        <time>2020-06-24T14:13:36Z</time>
      </trkpt>
      <trkpt lat="44.32933" lon="7.47186">
        <ele>693.25</ele>
        <time>2020-06-24T14:13:46Z</time>
      </trkpt>
      <trkpt lat="44.32931" lon="7.47187">
        <ele>693.73</ele>
        <time>2020-06-24T14:13:47Z</time>
      </trkpt>
      <trkpt lat="44.3293" lon="7.47187">
        <ele>693.73</ele>
        <time>2020-06-24T14:13:48Z</time>
      </trkpt>
      <trkpt lat="44.32902" lon="7.4719">
        <ele>693.25</ele>
        <time>2020-06-24T14:14:05Z</time>
      </trkpt>
      <trkpt lat="44.32878" lon="7.47177">
        <ele>697.57</ele>
        <time>2020-06-24T14:14:21Z</time>
      </trkpt>
      <trkpt lat="44.32862" lon="7.47164">
        <ele>703.82</ele>
        <time>2020-06-24T14:14:36Z</time>
      </trkpt>
      <trkpt lat="44.32844" lon="7.47154">
        <ele>710.07</ele>
        <time>2020-06-24T14:14:50Z</time>
      </trkpt>
      <trkpt lat="44.32831" lon="7.47145">
        <ele>709.11</ele>
        <time>2020-06-24T14:15:03Z</time>
      </trkpt>
      <trkpt lat="44.32823" lon="7.47132">
        <ele>709.11</ele>
        <time>2020-06-24T14:15:16Z</time>
      </trkpt>
      <trkpt lat="44.32834" lon="7.47107">
        <ele>714.88</ele>
        <time>2020-06-24T14:15:34Z</time>
      </trkpt>
      <trkpt lat="44.32843" lon="7.47092">
        <ele>718.72</ele>
        <time>2020-06-24T14:15:52Z</time>
      </trkpt>
      <trkpt lat="44.32856" lon="7.47077">
        <ele>724.97</ele>
        <time>2020-06-24T14:16:10Z</time>
      </trkpt>
      <trkpt lat="44.32875" lon="7.47043">
        <ele>724.01</ele>
        <time>2020-06-24T14:16:30Z</time>
      </trkpt>
      <trkpt lat="44.32865" lon="7.47029">
        <ele>721.13</ele>
        <time>2020-06-24T14:16:47Z</time>
      </trkpt>
      <trkpt lat="44.32852" lon="7.4701">
        <ele>724.49</ele>
        <time>2020-06-24T14:17:05Z</time>
      </trkpt>
      <trkpt lat="44.32834" lon="7.46999">
        <ele>723.53</ele>
        <time>2020-06-24T14:17:18Z</time>
      </trkpt>
      <trkpt lat="44.32828" lon="7.47001">
        <ele>726.89</ele>
        <time>2020-06-24T14:17:24Z</time>
      </trkpt>
      <trkpt lat="44.32826" lon="7.47002">
        <ele>727.86</ele>
        <time>2020-06-24T14:17:25Z</time>
      </trkpt>
      <trkpt lat="44.32823" lon="7.47004">
        <ele>728.34</ele>
        <time>2020-06-24T14:17:26Z</time>
      </trkpt>
      <trkpt lat="44.32802" lon="7.47">
        <ele>727.86</ele>
        <time>2020-06-24T14:17:38Z</time>
      </trkpt>
      <trkpt lat="44.32774" lon="7.46994">
        <ele>726.41</ele>
        <time>2020-06-24T14:17:53Z</time>
      </trkpt>
      <trkpt lat="44.32762" lon="7.4701">
        <ele>727.37</ele>
        <time>2020-06-24T14:18:03Z</time>
      </trkpt>
      <trkpt lat="44.3276" lon="7.47009">
        <ele>727.86</ele>
        <time>2020-06-24T14:18:04Z</time>
      </trkpt>
      <trkpt lat="44.32758" lon="7.47008">
        <ele>727.86</ele>
        <time>2020-06-24T14:18:05Z</time>
      </trkpt>
      <trkpt lat="44.32756" lon="7.47006">
        <ele>727.86</ele>
        <time>2020-06-24T14:18:06Z</time>
      </trkpt>
      <trkpt lat="44.32754" lon="7.47004">
        <ele>727.86</ele>
        <time>2020-06-24T14:18:07Z</time>
      </trkpt>
      <trkpt lat="44.32752" lon="7.47001">
        <ele>728.34</ele>
        <time>2020-06-24T14:18:08Z</time>
      </trkpt>
      <trkpt lat="44.3275" lon="7.47">
        <ele>728.34</ele>
        <time>2020-06-24T14:18:09Z</time>
      </trkpt>
      <trkpt lat="44.32732" lon="7.46977">
        <ele>730.74</ele>
        <time>2020-06-24T14:18:22Z</time>
      </trkpt>
      <trkpt lat="44.32714" lon="7.46964">
        <ele>734.1</ele>
        <time>2020-06-24T14:18:38Z</time>
      </trkpt>
      <trkpt lat="44.327" lon="7.46954">
        <ele>738.43</ele>
        <time>2020-06-24T14:18:53Z</time>
      </trkpt>
      <trkpt lat="44.32677" lon="7.46949">
        <ele>739.87</ele>
        <time>2020-06-24T14:19:10Z</time>
      </trkpt>
      <trkpt lat="44.32663" lon="7.46945">
        <ele>740.83</ele>
        <time>2020-06-24T14:19:22Z</time>
      </trkpt>
      <trkpt lat="44.32645" lon="7.46929">
        <ele>743.24</ele>
        <time>2020-06-24T14:19:38Z</time>
      </trkpt>
      <trkpt lat="44.32636" lon="7.46905">
        <ele>749.49</ele>
        <time>2020-06-24T14:19:52Z</time>
      </trkpt>
      <trkpt lat="44.3263" lon="7.46888">
        <ele>757.18</ele>
        <time>2020-06-24T14:20:08Z</time>
      </trkpt>
      <trkpt lat="44.32627" lon="7.46867">
        <ele>764.39</ele>
        <time>2020-06-24T14:20:26Z</time>
      </trkpt>
      <trkpt lat="44.32624" lon="7.46835">
        <ele>762.46</ele>
        <time>2020-06-24T14:20:42Z</time>
      </trkpt>
      <trkpt lat="44.32617" lon="7.46816">
        <ele>762.46</ele>
        <time>2020-06-24T14:21:01Z</time>
      </trkpt>
      <trkpt lat="44.32622" lon="7.46796">
        <ele>762.46</ele>
        <time>2020-06-24T14:21:20Z</time>
      </trkpt>
      <trkpt lat="44.32626" lon="7.46773">
        <ele>761.5</ele>
        <time>2020-06-24T14:21:37Z</time>
      </trkpt>
      <trkpt lat="44.32619" lon="7.46761">
        <ele>762.46</ele>
        <time>2020-06-24T14:21:52Z</time>
      </trkpt>
      <trkpt lat="44.32607" lon="7.46754">
        <ele>768.23</ele>
        <time>2020-06-24T14:22:07Z</time>
      </trkpt>
      <trkpt lat="44.32603" lon="7.46752">
        <ele>773.52</ele>
        <time>2020-06-24T14:22:28Z</time>
      </trkpt>
      <trkpt lat="44.32592" lon="7.4674">
        <ele>778.32</ele>
        <time>2020-06-24T14:22:45Z</time>
      </trkpt>
      <trkpt lat="44.32594" lon="7.46709">
        <ele>776.88</ele>
        <time>2020-06-24T14:23:01Z</time>
      </trkpt>
      <trkpt lat="44.32587" lon="7.46691">
        <ele>774</ele>
        <time>2020-06-24T14:23:18Z</time>
      </trkpt>
      <trkpt lat="44.32583" lon="7.46679">
        <ele>776.4</ele>
        <time>2020-06-24T14:23:33Z</time>
      </trkpt>
      <trkpt lat="44.32574" lon="7.46671">
        <ele>778.32</ele>
        <time>2020-06-24T14:23:49Z</time>
      </trkpt>
      <trkpt lat="44.32568" lon="7.46667">
        <ele>778.81</ele>
        <time>2020-06-24T14:24:06Z</time>
      </trkpt>
      <trkpt lat="44.3257" lon="7.46654">
        <ele>776.88</ele>
        <time>2020-06-24T14:24:24Z</time>
      </trkpt>
      <trkpt lat="44.32564" lon="7.46647">
        <ele>778.81</ele>
        <time>2020-06-24T14:24:39Z</time>
      </trkpt>
      <trkpt lat="44.32555" lon="7.4664">
        <ele>786.02</ele>
        <time>2020-06-24T14:24:55Z</time>
      </trkpt>
      <trkpt lat="44.32542" lon="7.46637">
        <ele>794.67</ele>
        <time>2020-06-24T14:25:10Z</time>
      </trkpt>
      <trkpt lat="44.32529" lon="7.46633">
        <ele>798.03</ele>
        <time>2020-06-24T14:25:28Z</time>
      </trkpt>
      <trkpt lat="44.32523" lon="7.46621">
        <ele>799.47</ele>
        <time>2020-06-24T14:25:43Z</time>
      </trkpt>
      <trkpt lat="44.32519" lon="7.46607">
        <ele>798.99</ele>
        <time>2020-06-24T14:26:01Z</time>
      </trkpt>
      <trkpt lat="44.32518" lon="7.466">
        <ele>798.51</ele>
        <time>2020-06-24T14:26:18Z</time>
      </trkpt>
      <trkpt lat="44.32513" lon="7.46589">
        <ele>798.99</ele>
        <time>2020-06-24T14:26:34Z</time>
      </trkpt>
      <trkpt lat="44.32509" lon="7.46575">
        <ele>798.99</ele>
        <time>2020-06-24T14:26:50Z</time>
      </trkpt>
      <trkpt lat="44.32505" lon="7.46566">
        <ele>799.47</ele>
        <time>2020-06-24T14:27:07Z</time>
      </trkpt>
      <trkpt lat="44.32501" lon="7.46556">
        <ele>799.95</ele>
        <time>2020-06-24T14:27:23Z</time>
      </trkpt>
      <trkpt lat="44.325" lon="7.46542">
        <ele>800.44</ele>
        <time>2020-06-24T14:27:40Z</time>
      </trkpt>
      <trkpt lat="44.32501" lon="7.46541">
        <ele>800.44</ele>
        <time>2020-06-24T14:27:49Z</time>
      </trkpt>
      <trkpt lat="44.32503" lon="7.4654">
        <ele>800.44</ele>
        <time>2020-06-24T14:27:51Z</time>
      </trkpt>
      <trkpt lat="44.32504" lon="7.46539">
        <ele>800.92</ele>
        <time>2020-06-24T14:27:52Z</time>
      </trkpt>
      <trkpt lat="44.32506" lon="7.46537">
        <ele>800.92</ele>
        <time>2020-06-24T14:27:53Z</time>
      </trkpt>
      <trkpt lat="44.32526" lon="7.46515">
        <ele>802.36</ele>
        <time>2020-06-24T14:28:08Z</time>
      </trkpt>
      <trkpt lat="44.32533" lon="7.46496">
        <ele>805.24</ele>
        <time>2020-06-24T14:28:24Z</time>
      </trkpt>
      <trkpt lat="44.32548" lon="7.46481">
        <ele>808.61</ele>
        <time>2020-06-24T14:28:41Z</time>
      </trkpt>
      <trkpt lat="44.3256" lon="7.46477">
        <ele>812.45</ele>
        <time>2020-06-24T14:28:51Z</time>
      </trkpt>
      <trkpt lat="44.32581" lon="7.46469">
        <ele>813.41</ele>
        <time>2020-06-24T14:29:04Z</time>
      </trkpt>
      <trkpt lat="44.32583" lon="7.46468">
        <ele>812.93</ele>
        <time>2020-06-24T14:29:05Z</time>
      </trkpt>
      <trkpt lat="44.32596" lon="7.46449">
        <ele>816.78</ele>
        <time>2020-06-24T14:29:17Z</time>
      </trkpt>
      <trkpt lat="44.32614" lon="7.46421">
        <ele>820.14</ele>
        <time>2020-06-24T14:29:31Z</time>
      </trkpt>
      <trkpt lat="44.32633" lon="7.46405">
        <ele>826.87</ele>
        <time>2020-06-24T14:29:46Z</time>
      </trkpt>
      <trkpt lat="44.32653" lon="7.46398">
        <ele>829.27</ele>
        <time>2020-06-24T14:29:57Z</time>
      </trkpt>
      <trkpt lat="44.32671" lon="7.4638">
        <ele>830.72</ele>
        <time>2020-06-24T14:30:13Z</time>
      </trkpt>
      <trkpt lat="44.32687" lon="7.4636">
        <ele>820.62</ele>
        <time>2020-06-24T14:30:27Z</time>
      </trkpt>
      <trkpt lat="44.32698" lon="7.46354">
        <ele>822.55</ele>
        <time>2020-06-24T14:30:42Z</time>
      </trkpt>
      <trkpt lat="44.327" lon="7.46344">
        <ele>820.14</ele>
        <time>2020-06-24T14:30:56Z</time>
      </trkpt>
      <trkpt lat="44.32696" lon="7.46346">
        <ele>821.1</ele>
        <time>2020-06-24T14:31:28Z</time>
      </trkpt>
      <trkpt lat="44.32695" lon="7.46345">
        <ele>819.66</ele>
        <time>2020-06-24T14:32:01Z</time>
      </trkpt>
      <trkpt lat="44.327" lon="7.46348">
        <ele>821.1</ele>
        <time>2020-06-24T14:32:29Z</time>
      </trkpt>
      <trkpt lat="44.32703" lon="7.46348">
        <ele>820.62</ele>
        <time>2020-06-24T14:32:55Z</time>
      </trkpt>
      <trkpt lat="44.32704" lon="7.46349">
        <ele>823.03</ele>
        <time>2020-06-24T14:33:27Z</time>
      </trkpt>
      <trkpt lat="44.327" lon="7.46348">
        <ele>825.91</ele>
        <time>2020-06-24T14:34:00Z</time>
      </trkpt>
      <trkpt lat="44.32696" lon="7.46349">
        <ele>826.39</ele>
        <time>2020-06-24T14:34:26Z</time>
      </trkpt>
      <trkpt lat="44.32695" lon="7.46348">
        <ele>826.87</ele>
        <time>2020-06-24T14:34:27Z</time>
      </trkpt>
      <trkpt lat="44.32695" lon="7.46348">
        <ele>826.87</ele>
        <time>2020-06-24T14:34:28Z</time>
      </trkpt>
      <trkpt lat="44.3269" lon="7.46343">
        <ele>828.31</ele>
        <time>2020-06-24T14:34:36Z</time>
      </trkpt>
      <trkpt lat="44.32689" lon="7.46342">
        <ele>828.31</ele>
        <time>2020-06-24T14:34:37Z</time>
      </trkpt>
      <trkpt lat="44.32688" lon="7.4634">
        <ele>828.79</ele>
        <time>2020-06-24T14:34:38Z</time>
      </trkpt>
      <trkpt lat="44.32687" lon="7.46338">
        <ele>829.27</ele>
        <time>2020-06-24T14:34:39Z</time>
      </trkpt>
      <trkpt lat="44.32686" lon="7.46337">
        <ele>829.76</ele>
        <time>2020-06-24T14:34:40Z</time>
      </trkpt>
      <trkpt lat="44.32685" lon="7.46335">
        <ele>830.72</ele>
        <time>2020-06-24T14:34:41Z</time>
      </trkpt>
      <trkpt lat="44.32684" lon="7.46334">
        <ele>831.2</ele>
        <time>2020-06-24T14:34:42Z</time>
      </trkpt>
      <trkpt lat="44.32683" lon="7.46333">
        <ele>831.68</ele>
        <time>2020-06-24T14:34:43Z</time>
      </trkpt>
      <trkpt lat="44.32681" lon="7.46331">
        <ele>831.68</ele>
        <time>2020-06-24T14:34:44Z</time>
      </trkpt>
      <trkpt lat="44.32681" lon="7.46328">
        <ele>832.16</ele>
        <time>2020-06-24T14:34:45Z</time>
      </trkpt>
      <trkpt lat="44.3268" lon="7.46326">
        <ele>832.64</ele>
        <time>2020-06-24T14:34:46Z</time>
      </trkpt>
      <trkpt lat="44.32679" lon="7.46324">
        <ele>832.64</ele>
        <time>2020-06-24T14:34:47Z</time>
      </trkpt>
      <trkpt lat="44.32679" lon="7.46321">
        <ele>833.12</ele>
        <time>2020-06-24T14:34:48Z</time>
      </trkpt>
      <trkpt lat="44.32678" lon="7.4632">
        <ele>834.08</ele>
        <time>2020-06-24T14:34:49Z</time>
      </trkpt>
      <trkpt lat="44.32677" lon="7.46298">
        <ele>840.81</ele>
        <time>2020-06-24T14:35:02Z</time>
      </trkpt>
      <trkpt lat="44.32676" lon="7.46272">
        <ele>848.02</ele>
        <time>2020-06-24T14:35:17Z</time>
      </trkpt>
      <trkpt lat="44.32683" lon="7.46251">
        <ele>856.19</ele>
        <time>2020-06-24T14:35:35Z</time>
      </trkpt>
      <trkpt lat="44.3269" lon="7.46214">
        <ele>855.23</ele>
        <time>2020-06-24T14:35:51Z</time>
      </trkpt>
      <trkpt lat="44.32695" lon="7.46182">
        <ele>855.71</ele>
        <time>2020-06-24T14:36:07Z</time>
      </trkpt>
      <trkpt lat="44.32698" lon="7.46154">
        <ele>856.67</ele>
        <time>2020-06-24T14:36:22Z</time>
      </trkpt>
      <trkpt lat="44.32702" lon="7.4612">
        <ele>856.19</ele>
        <time>2020-06-24T14:36:40Z</time>
      </trkpt>
      <trkpt lat="44.32702" lon="7.46089">
        <ele>851.87</ele>
        <time>2020-06-24T14:36:58Z</time>
      </trkpt>
      <trkpt lat="44.32705" lon="7.46084">
        <ele>854.75</ele>
        <time>2020-06-24T14:37:14Z</time>
      </trkpt>
      <trkpt lat="44.32698" lon="7.46087">
        <ele>856.67</ele>
        <time>2020-06-24T14:37:32Z</time>
      </trkpt>
      <trkpt lat="44.32687" lon="7.46086">
        <ele>859.08</ele>
        <time>2020-06-24T14:37:42Z</time>
      </trkpt>
      <trkpt lat="44.32686" lon="7.46086">
        <ele>859.56</ele>
        <time>2020-06-24T14:37:43Z</time>
      </trkpt>
      <trkpt lat="44.32685" lon="7.46086">
        <ele>859.56</ele>
        <time>2020-06-24T14:37:44Z</time>
      </trkpt>
      <trkpt lat="44.32683" lon="7.46086">
        <ele>860.04</ele>
        <time>2020-06-24T14:37:45Z</time>
      </trkpt>
      <trkpt lat="44.32681" lon="7.46085">
        <ele>860.52</ele>
        <time>2020-06-24T14:37:46Z</time>
      </trkpt>
      <trkpt lat="44.3268" lon="7.46084">
        <ele>860.52</ele>
        <time>2020-06-24T14:37:47Z</time>
      </trkpt>
      <trkpt lat="44.32678" lon="7.46084">
        <ele>860.52</ele>
        <time>2020-06-24T14:37:48Z</time>
      </trkpt>
      <trkpt lat="44.32677" lon="7.46084">
        <ele>861</ele>
        <time>2020-06-24T14:37:49Z</time>
      </trkpt>
      <trkpt lat="44.32675" lon="7.46084">
        <ele>861</ele>
        <time>2020-06-24T14:37:50Z</time>
      </trkpt>
      <trkpt lat="44.32673" lon="7.46084">
        <ele>861.48</ele>
        <time>2020-06-24T14:37:51Z</time>
      </trkpt>
      <trkpt lat="44.32648" lon="7.46068">
        <ele>866.29</ele>
        <time>2020-06-24T14:38:06Z</time>
      </trkpt>
      <trkpt lat="44.32636" lon="7.46056">
        <ele>872.05</ele>
        <time>2020-06-24T14:38:15Z</time>
      </trkpt>
      <trkpt lat="44.32603" lon="7.46025">
        <ele>882.15</ele>
        <time>2020-06-24T14:38:29Z</time>
      </trkpt>
      <trkpt lat="44.32584" lon="7.45982">
        <ele>881.67</ele>
        <time>2020-06-24T14:38:43Z</time>
      </trkpt>
      <trkpt lat="44.3258" lon="7.45967">
        <ele>882.15</ele>
        <time>2020-06-24T14:38:50Z</time>
      </trkpt>
      <trkpt lat="44.32579" lon="7.45965">
        <ele>881.67</ele>
        <time>2020-06-24T14:38:51Z</time>
      </trkpt>
      <trkpt lat="44.32577" lon="7.45961">
        <ele>881.67</ele>
        <time>2020-06-24T14:38:53Z</time>
      </trkpt>
      <trkpt lat="44.32554" lon="7.45898">
        <ele>879.26</ele>
        <time>2020-06-24T14:39:06Z</time>
      </trkpt>
      <trkpt lat="44.32531" lon="7.45874">
        <ele>875.42</ele>
        <time>2020-06-24T14:39:15Z</time>
      </trkpt>
      <trkpt lat="44.32528" lon="7.45872">
        <ele>873.98</ele>
        <time>2020-06-24T14:39:16Z</time>
      </trkpt>
      <trkpt lat="44.32525" lon="7.45871">
        <ele>873.01</ele>
        <time>2020-06-24T14:39:17Z</time>
      </trkpt>
      <trkpt lat="44.32504" lon="7.45833">
        <ele>876.86</ele>
        <time>2020-06-24T14:39:31Z</time>
      </trkpt>
      <trkpt lat="44.3248" lon="7.45809">
        <ele>880.22</ele>
        <time>2020-06-24T14:39:42Z</time>
      </trkpt>
      <trkpt lat="44.32449" lon="7.45776">
        <ele>879.26</ele>
        <time>2020-06-24T14:39:55Z</time>
      </trkpt>
      <trkpt lat="44.32426" lon="7.45739">
        <ele>874.94</ele>
        <time>2020-06-24T14:40:07Z</time>
      </trkpt>
      <trkpt lat="44.32408" lon="7.4571">
        <ele>874.94</ele>
        <time>2020-06-24T14:40:18Z</time>
      </trkpt>
      <trkpt lat="44.32389" lon="7.45682">
        <ele>872.05</ele>
        <time>2020-06-24T14:40:30Z</time>
      </trkpt>
      <trkpt lat="44.32373" lon="7.45636">
        <ele>871.09</ele>
        <time>2020-06-24T14:40:44Z</time>
      </trkpt>
      <trkpt lat="44.3237" lon="7.45597">
        <ele>871.09</ele>
        <time>2020-06-24T14:40:57Z</time>
      </trkpt>
      <trkpt lat="44.32374" lon="7.45567">
        <ele>868.21</ele>
        <time>2020-06-24T14:41:09Z</time>
      </trkpt>
      <trkpt lat="44.32365" lon="7.45535">
        <ele>839.37</ele>
        <time>2020-06-24T14:41:40Z</time>
      </trkpt>
      <trkpt lat="44.32366" lon="7.45532">
        <ele>837.93</ele>
        <time>2020-06-24T14:42:08Z</time>
      </trkpt>
      <trkpt lat="44.32356" lon="7.45519">
        <ele>838.41</ele>
        <time>2020-06-24T14:42:20Z</time>
      </trkpt>
      <trkpt lat="44.32346" lon="7.45502">
        <ele>842.25</ele>
        <time>2020-06-24T14:42:32Z</time>
      </trkpt>
      <trkpt lat="44.32336" lon="7.45484">
        <ele>848.02</ele>
        <time>2020-06-24T14:42:50Z</time>
      </trkpt>
      <trkpt lat="44.32336" lon="7.45462">
        <ele>853.31</ele>
        <time>2020-06-24T14:43:06Z</time>
      </trkpt>
      <trkpt lat="44.3233" lon="7.45443">
        <ele>857.63</ele>
        <time>2020-06-24T14:43:22Z</time>
      </trkpt>
      <trkpt lat="44.32324" lon="7.45438">
        <ele>860.52</ele>
        <time>2020-06-24T14:43:38Z</time>
      </trkpt>
      <trkpt lat="44.32318" lon="7.45424">
        <ele>863.4</ele>
        <time>2020-06-24T14:43:51Z</time>
      </trkpt>
      <trkpt lat="44.32309" lon="7.45409">
        <ele>875.9</ele>
        <time>2020-06-24T14:44:07Z</time>
      </trkpt>
      <trkpt lat="44.32317" lon="7.45376">
        <ele>877.82</ele>
        <time>2020-06-24T14:44:22Z</time>
      </trkpt>
      <trkpt lat="44.3232" lon="7.45334">
        <ele>880.22</ele>
        <time>2020-06-24T14:44:38Z</time>
      </trkpt>
      <trkpt lat="44.32321" lon="7.453">
        <ele>878.78</ele>
        <time>2020-06-24T14:44:55Z</time>
      </trkpt>
      <trkpt lat="44.32324" lon="7.45275">
        <ele>880.71</ele>
        <time>2020-06-24T14:45:11Z</time>
      </trkpt>
      <trkpt lat="44.3233" lon="7.4525">
        <ele>877.82</ele>
        <time>2020-06-24T14:45:25Z</time>
      </trkpt>
      <trkpt lat="44.32335" lon="7.45219">
        <ele>874.46</ele>
        <time>2020-06-24T14:45:42Z</time>
      </trkpt>
      <trkpt lat="44.32341" lon="7.45196">
        <ele>878.3</ele>
        <time>2020-06-24T14:45:59Z</time>
      </trkpt>
      <trkpt lat="44.32342" lon="7.45198">
        <ele>889.36</ele>
        <time>2020-06-24T14:46:27Z</time>
      </trkpt>
      <trkpt lat="44.32341" lon="7.45199">
        <ele>889.36</ele>
        <time>2020-06-24T14:46:28Z</time>
      </trkpt>
      <trkpt lat="44.32339" lon="7.45207">
        <ele>884.55</ele>
        <time>2020-06-24T14:46:41Z</time>
      </trkpt>
      <trkpt lat="44.3233" lon="7.452">
        <ele>883.59</ele>
        <time>2020-06-24T14:46:55Z</time>
      </trkpt>
      <trkpt lat="44.3232" lon="7.45207">
        <ele>884.07</ele>
        <time>2020-06-24T14:47:10Z</time>
      </trkpt>
      <trkpt lat="44.32309" lon="7.45215">
        <ele>887.43</ele>
        <time>2020-06-24T14:47:27Z</time>
      </trkpt>
      <trkpt lat="44.32297" lon="7.45223">
        <ele>890.8</ele>
        <time>2020-06-24T14:47:41Z</time>
      </trkpt>
      <trkpt lat="44.32287" lon="7.45232">
        <ele>891.76</ele>
        <time>2020-06-24T14:47:56Z</time>
      </trkpt>
      <trkpt lat="44.32283" lon="7.45241">
        <ele>890.32</ele>
        <time>2020-06-24T14:48:16Z</time>
      </trkpt>
      <trkpt lat="44.32284" lon="7.45243">
        <ele>890.8</ele>
        <time>2020-06-24T14:48:19Z</time>
      </trkpt>
      <trkpt lat="44.32287" lon="7.45254">
        <ele>887.43</ele>
        <time>2020-06-24T14:48:32Z</time>
      </trkpt>
      <trkpt lat="44.32295" lon="7.45272">
        <ele>889.36</ele>
        <time>2020-06-24T14:48:48Z</time>
      </trkpt>
      <trkpt lat="44.3229" lon="7.45297">
        <ele>889.36</ele>
        <time>2020-06-24T14:49:02Z</time>
      </trkpt>
      <trkpt lat="44.32267" lon="7.45327">
        <ele>886.47</ele>
        <time>2020-06-24T14:49:18Z</time>
      </trkpt>
      <trkpt lat="44.32262" lon="7.45349">
        <ele>889.84</ele>
        <time>2020-06-24T14:49:34Z</time>
      </trkpt>
      <trkpt lat="44.32262" lon="7.45372">
        <ele>895.61</ele>
        <time>2020-06-24T14:49:46Z</time>
      </trkpt>
      <trkpt lat="44.32274" lon="7.45409">
        <ele>903.78</ele>
        <time>2020-06-24T14:50:00Z</time>
      </trkpt>
      <trkpt lat="44.32287" lon="7.45431">
        <ele>912.91</ele>
        <time>2020-06-24T14:50:14Z</time>
      </trkpt>
      <trkpt lat="44.32298" lon="7.4546">
        <ele>919.16</ele>
        <time>2020-06-24T14:50:25Z</time>
      </trkpt>
      <trkpt lat="44.32304" lon="7.4551">
        <ele>919.16</ele>
        <time>2020-06-24T14:50:35Z</time>
      </trkpt>
      <trkpt lat="44.323" lon="7.45571">
        <ele>912.43</ele>
        <time>2020-06-24T14:50:49Z</time>
      </trkpt>
      <trkpt lat="44.323" lon="7.4563">
        <ele>897.53</ele>
        <time>2020-06-24T14:51:03Z</time>
      </trkpt>
      <trkpt lat="44.32298" lon="7.45638">
        <ele>895.61</ele>
        <time>2020-06-24T14:51:05Z</time>
      </trkpt>
      <trkpt lat="44.32287" lon="7.45665">
        <ele>888.4</ele>
        <time>2020-06-24T14:51:18Z</time>
      </trkpt>
      <trkpt lat="44.32287" lon="7.45679">
        <ele>888.4</ele>
        <time>2020-06-24T14:51:36Z</time>
      </trkpt>
      <trkpt lat="44.32285" lon="7.45672">
        <ele>886.47</ele>
        <time>2020-06-24T14:51:48Z</time>
      </trkpt>
      <trkpt lat="44.32283" lon="7.45665">
        <ele>884.55</ele>
        <time>2020-06-24T14:52:01Z</time>
      </trkpt>
      <trkpt lat="44.3228" lon="7.45661">
        <ele>889.84</ele>
        <time>2020-06-24T14:52:45Z</time>
      </trkpt>
      <trkpt lat="44.3228" lon="7.45661">
        <ele>887.91</ele>
        <time>2020-06-24T14:53:14Z</time>
      </trkpt>
      <trkpt lat="44.32283" lon="7.45661">
        <ele>888.4</ele>
        <time>2020-06-24T14:53:44Z</time>
      </trkpt>
      <trkpt lat="44.32284" lon="7.45661">
        <ele>886.47</ele>
        <time>2020-06-24T14:54:12Z</time>
      </trkpt>
      <trkpt lat="44.32283" lon="7.45659">
        <ele>885.99</ele>
        <time>2020-06-24T14:54:46Z</time>
      </trkpt>
      <trkpt lat="44.32279" lon="7.45642">
        <ele>885.99</ele>
        <time>2020-06-24T14:55:02Z</time>
      </trkpt>
      <trkpt lat="44.32277" lon="7.45624">
        <ele>893.68</ele>
        <time>2020-06-24T14:55:19Z</time>
      </trkpt>
      <trkpt lat="44.3227" lon="7.45589">
        <ele>902.82</ele>
        <time>2020-06-24T14:55:36Z</time>
      </trkpt>
      <trkpt lat="44.32257" lon="7.45544">
        <ele>907.62</ele>
        <time>2020-06-24T14:55:47Z</time>
      </trkpt>
      <trkpt lat="44.32244" lon="7.45494">
        <ele>912.43</ele>
        <time>2020-06-24T14:56:01Z</time>
      </trkpt>
      <trkpt lat="44.32228" lon="7.45442">
        <ele>915.31</ele>
        <time>2020-06-24T14:56:14Z</time>
      </trkpt>
      <trkpt lat="44.32229" lon="7.45409">
        <ele>918.2</ele>
        <time>2020-06-24T14:56:25Z</time>
      </trkpt>
      <trkpt lat="44.32249" lon="7.45359">
        <ele>918.2</ele>
        <time>2020-06-24T14:56:40Z</time>
      </trkpt>
      <trkpt lat="44.32266" lon="7.45307">
        <ele>916.75</ele>
        <time>2020-06-24T14:56:52Z</time>
      </trkpt>
      <trkpt lat="44.3227" lon="7.45299">
        <ele>915.79</ele>
        <time>2020-06-24T14:56:55Z</time>
      </trkpt>
      <trkpt lat="44.32298" lon="7.45276">
        <ele>915.31</ele>
        <time>2020-06-24T14:57:07Z</time>
      </trkpt>
      <trkpt lat="44.32332" lon="7.45234">
        <ele>913.39</ele>
        <time>2020-06-24T14:57:18Z</time>
      </trkpt>
      <trkpt lat="44.32343" lon="7.4523">
        <ele>908.58</ele>
        <time>2020-06-24T14:57:29Z</time>
      </trkpt>
      <trkpt lat="44.32354" lon="7.45208">
        <ele>900.89</ele>
        <time>2020-06-24T14:57:35Z</time>
      </trkpt>
      <trkpt lat="44.32377" lon="7.45185">
        <ele>896.57</ele>
        <time>2020-06-24T14:57:43Z</time>
      </trkpt>
      <trkpt lat="44.3239" lon="7.45183">
        <ele>894.64</ele>
        <time>2020-06-24T14:57:55Z</time>
      </trkpt>
      <trkpt lat="44.32402" lon="7.4517">
        <ele>890.8</ele>
        <time>2020-06-24T14:58:17Z</time>
      </trkpt>
      <trkpt lat="44.32426" lon="7.45169">
        <ele>883.11</ele>
        <time>2020-06-24T14:58:32Z</time>
      </trkpt>
      <trkpt lat="44.32434" lon="7.45173">
        <ele>879.26</ele>
        <time>2020-06-24T14:58:45Z</time>
      </trkpt>
      <trkpt lat="44.32438" lon="7.45176">
        <ele>875.42</ele>
        <time>2020-06-24T14:59:00Z</time>
      </trkpt>
      <trkpt lat="44.32446" lon="7.45183">
        <ele>873.98</ele>
        <time>2020-06-24T14:59:16Z</time>
      </trkpt>
      <trkpt lat="44.32456" lon="7.45186">
        <ele>873.98</ele>
        <time>2020-06-24T14:59:31Z</time>
      </trkpt>
      <trkpt lat="44.32469" lon="7.45185">
        <ele>877.82</ele>
        <time>2020-06-24T14:59:50Z</time>
      </trkpt>
      <trkpt lat="44.32479" lon="7.45189">
        <ele>881.67</ele>
        <time>2020-06-24T15:00:05Z</time>
      </trkpt>
      <trkpt lat="44.32489" lon="7.45195">
        <ele>887.43</ele>
        <time>2020-06-24T15:00:21Z</time>
      </trkpt>
      <trkpt lat="44.325" lon="7.45198">
        <ele>892.24</ele>
        <time>2020-06-24T15:00:38Z</time>
      </trkpt>
      <trkpt lat="44.32513" lon="7.45201">
        <ele>892.72</ele>
        <time>2020-06-24T15:00:53Z</time>
      </trkpt>
      <trkpt lat="44.32528" lon="7.45203">
        <ele>894.64</ele>
        <time>2020-06-24T15:01:10Z</time>
      </trkpt>
      <trkpt lat="44.32543" lon="7.45204">
        <ele>895.12</ele>
        <time>2020-06-24T15:01:28Z</time>
      </trkpt>
      <trkpt lat="44.32546" lon="7.45204">
        <ele>894.16</ele>
        <time>2020-06-24T15:01:48Z</time>
      </trkpt>
      <trkpt lat="44.32549" lon="7.45199">
        <ele>891.28</ele>
        <time>2020-06-24T15:02:08Z</time>
      </trkpt>
      <trkpt lat="44.32551" lon="7.45206">
        <ele>891.28</ele>
        <time>2020-06-24T15:02:21Z</time>
      </trkpt>
      <trkpt lat="44.32548" lon="7.45209">
        <ele>890.32</ele>
        <time>2020-06-24T15:02:39Z</time>
      </trkpt>
      <trkpt lat="44.32548" lon="7.4521">
        <ele>889.84</ele>
        <time>2020-06-24T15:02:56Z</time>
      </trkpt>
      <trkpt lat="44.32552" lon="7.45202">
        <ele>888.4</ele>
        <time>2020-06-24T15:03:26Z</time>
      </trkpt>
      <trkpt lat="44.3255" lon="7.45201">
        <ele>892.72</ele>
        <time>2020-06-24T15:03:56Z</time>
      </trkpt>
      <trkpt lat="44.32551" lon="7.45203">
        <ele>892.72</ele>
        <time>2020-06-24T15:04:16Z</time>
      </trkpt>
      <trkpt lat="44.32549" lon="7.45201">
        <ele>890.8</ele>
        <time>2020-06-24T15:04:37Z</time>
      </trkpt>
      <trkpt lat="44.32549" lon="7.45201">
        <ele>890.8</ele>
        <time>2020-06-24T15:04:38Z</time>
      </trkpt>
      <trkpt lat="44.3252" lon="7.45204">
        <ele>888.4</ele>
        <time>2020-06-24T15:04:50Z</time>
      </trkpt>
      <trkpt lat="44.32485" lon="7.45198">
        <ele>883.59</ele>
        <time>2020-06-24T15:05:01Z</time>
      </trkpt>
      <trkpt lat="44.32457" lon="7.45199">
        <ele>879.74</ele>
        <time>2020-06-24T15:05:12Z</time>
      </trkpt>
      <trkpt lat="44.32455" lon="7.45197">
        <ele>879.74</ele>
        <time>2020-06-24T15:05:13Z</time>
      </trkpt>
      <trkpt lat="44.32454" lon="7.45196">
        <ele>879.74</ele>
        <time>2020-06-24T15:05:14Z</time>
      </trkpt>
      <trkpt lat="44.32451" lon="7.45194">
        <ele>880.22</ele>
        <time>2020-06-24T15:05:15Z</time>
      </trkpt>
      <trkpt lat="44.3242" lon="7.45188">
        <ele>881.67</ele>
        <time>2020-06-24T15:05:26Z</time>
      </trkpt>
      <trkpt lat="44.32392" lon="7.45206">
        <ele>881.19</ele>
        <time>2020-06-24T15:05:36Z</time>
      </trkpt>
      <trkpt lat="44.32371" lon="7.45207">
        <ele>880.22</ele>
        <time>2020-06-24T15:05:46Z</time>
      </trkpt>
      <trkpt lat="44.32359" lon="7.45207">
        <ele>881.19</ele>
        <time>2020-06-24T15:05:52Z</time>
      </trkpt>
      <trkpt lat="44.32356" lon="7.45207">
        <ele>880.71</ele>
        <time>2020-06-24T15:05:58Z</time>
      </trkpt>
      <trkpt lat="44.32367" lon="7.45234">
        <ele>881.19</ele>
        <time>2020-06-24T15:06:10Z</time>
      </trkpt>
      <trkpt lat="44.32373" lon="7.4525">
        <ele>875.9</ele>
        <time>2020-06-24T15:06:22Z</time>
      </trkpt>
      <trkpt lat="44.32362" lon="7.45276">
        <ele>875.42</ele>
        <time>2020-06-24T15:06:31Z</time>
      </trkpt>
      <trkpt lat="44.3236" lon="7.45343">
        <ele>876.38</ele>
        <time>2020-06-24T15:06:45Z</time>
      </trkpt>
      <trkpt lat="44.32347" lon="7.45388">
        <ele>873.01</ele>
        <time>2020-06-24T15:06:59Z</time>
      </trkpt>
      <trkpt lat="44.32367" lon="7.4543">
        <ele>862.92</ele>
        <time>2020-06-24T15:07:11Z</time>
      </trkpt>
      <trkpt lat="44.3238" lon="7.45474">
        <ele>859.56</ele>
        <time>2020-06-24T15:07:22Z</time>
      </trkpt>
      <trkpt lat="44.32377" lon="7.45535">
        <ele>848.02</ele>
        <time>2020-06-24T15:07:35Z</time>
      </trkpt>
      <trkpt lat="44.32375" lon="7.45572">
        <ele>839.85</ele>
        <time>2020-06-24T15:07:52Z</time>
      </trkpt>
      <trkpt lat="44.32377" lon="7.45593">
        <ele>836.48</ele>
        <time>2020-06-24T15:08:08Z</time>
      </trkpt>
      <trkpt lat="44.32377" lon="7.45613">
        <ele>836</ele>
        <time>2020-06-24T15:08:25Z</time>
      </trkpt>
      <trkpt lat="44.32382" lon="7.45622">
        <ele>836.48</ele>
        <time>2020-06-24T15:08:41Z</time>
      </trkpt>
      <trkpt lat="44.32398" lon="7.45644">
        <ele>834.08</ele>
        <time>2020-06-24T15:08:55Z</time>
      </trkpt>
      <trkpt lat="44.32404" lon="7.45663">
        <ele>833.12</ele>
        <time>2020-06-24T15:09:02Z</time>
      </trkpt>
      <trkpt lat="44.32418" lon="7.45684">
        <ele>829.27</ele>
        <time>2020-06-24T15:09:15Z</time>
      </trkpt>
      <trkpt lat="44.32424" lon="7.45701">
        <ele>830.72</ele>
        <time>2020-06-24T15:09:30Z</time>
      </trkpt>
      <trkpt lat="44.32432" lon="7.4572">
        <ele>832.64</ele>
        <time>2020-06-24T15:09:47Z</time>
      </trkpt>
      <trkpt lat="44.32442" lon="7.45737">
        <ele>835.52</ele>
        <time>2020-06-24T15:10:03Z</time>
      </trkpt>
      <trkpt lat="44.32448" lon="7.45753">
        <ele>841.77</ele>
        <time>2020-06-24T15:10:23Z</time>
      </trkpt>
      <trkpt lat="44.32453" lon="7.45776">
        <ele>844.66</ele>
        <time>2020-06-24T15:10:39Z</time>
      </trkpt>
      <trkpt lat="44.32458" lon="7.45777">
        <ele>847.54</ele>
        <time>2020-06-24T15:10:52Z</time>
      </trkpt>
      <trkpt lat="44.32477" lon="7.45789">
        <ele>849.46</ele>
        <time>2020-06-24T15:11:06Z</time>
      </trkpt>
      <trkpt lat="44.32483" lon="7.45792">
        <ele>848.5</ele>
        <time>2020-06-24T15:11:11Z</time>
      </trkpt>
      <trkpt lat="44.32504" lon="7.45816">
        <ele>848.02</ele>
        <time>2020-06-24T15:11:27Z</time>
      </trkpt>
      <trkpt lat="44.32509" lon="7.45823">
        <ele>848.98</ele>
        <time>2020-06-24T15:11:31Z</time>
      </trkpt>
      <trkpt lat="44.32534" lon="7.45851">
        <ele>849.46</ele>
        <time>2020-06-24T15:11:46Z</time>
      </trkpt>
      <trkpt lat="44.3256" lon="7.45884">
        <ele>846.58</ele>
        <time>2020-06-24T15:12:01Z</time>
      </trkpt>
      <trkpt lat="44.32577" lon="7.45905">
        <ele>846.1</ele>
        <time>2020-06-24T15:12:11Z</time>
      </trkpt>
      <trkpt lat="44.32578" lon="7.45912">
        <ele>846.58</ele>
        <time>2020-06-24T15:12:14Z</time>
      </trkpt>
      <trkpt lat="44.32581" lon="7.45927">
        <ele>847.54</ele>
        <time>2020-06-24T15:12:23Z</time>
      </trkpt>
      <trkpt lat="44.32582" lon="7.4593">
        <ele>847.54</ele>
        <time>2020-06-24T15:12:24Z</time>
      </trkpt>
      <trkpt lat="44.32588" lon="7.45956">
        <ele>847.06</ele>
        <time>2020-06-24T15:12:38Z</time>
      </trkpt>
      <trkpt lat="44.32591" lon="7.45968">
        <ele>847.06</ele>
        <time>2020-06-24T15:12:42Z</time>
      </trkpt>
      <trkpt lat="44.32607" lon="7.46006">
        <ele>847.54</ele>
        <time>2020-06-24T15:12:56Z</time>
      </trkpt>
      <trkpt lat="44.32632" lon="7.46037">
        <ele>844.18</ele>
        <time>2020-06-24T15:13:09Z</time>
      </trkpt>
      <trkpt lat="44.32648" lon="7.46068">
        <ele>842.25</ele>
        <time>2020-06-24T15:13:23Z</time>
      </trkpt>
      <trkpt lat="44.32661" lon="7.46074">
        <ele>840.81</ele>
        <time>2020-06-24T15:13:38Z</time>
      </trkpt>
      <trkpt lat="44.32685" lon="7.46077">
        <ele>842.25</ele>
        <time>2020-06-24T15:13:51Z</time>
      </trkpt>
      <trkpt lat="44.32699" lon="7.46087">
        <ele>845.62</ele>
        <time>2020-06-24T15:14:04Z</time>
      </trkpt>
      <trkpt lat="44.32703" lon="7.4612">
        <ele>848.02</ele>
        <time>2020-06-24T15:14:17Z</time>
      </trkpt>
      <trkpt lat="44.32703" lon="7.46165">
        <ele>850.42</ele>
        <time>2020-06-24T15:14:31Z</time>
      </trkpt>
      <trkpt lat="44.32714" lon="7.46223">
        <ele>852.83</ele>
        <time>2020-06-24T15:14:41Z</time>
      </trkpt>
      <trkpt lat="44.3271" lon="7.46285">
        <ele>852.83</ele>
        <time>2020-06-24T15:14:54Z</time>
      </trkpt>
      <trkpt lat="44.32709" lon="7.4631">
        <ele>846.1</ele>
        <time>2020-06-24T15:15:05Z</time>
      </trkpt>
      <trkpt lat="44.32708" lon="7.46349">
        <ele>840.81</ele>
        <time>2020-06-24T15:15:18Z</time>
      </trkpt>
      <trkpt lat="44.32706" lon="7.46354">
        <ele>839.37</ele>
        <time>2020-06-24T15:15:20Z</time>
      </trkpt>
      <trkpt lat="44.32704" lon="7.46358">
        <ele>838.89</ele>
        <time>2020-06-24T15:15:21Z</time>
      </trkpt>
      <trkpt lat="44.32699" lon="7.46368">
        <ele>836.48</ele>
        <time>2020-06-24T15:15:25Z</time>
      </trkpt>
      <trkpt lat="44.32698" lon="7.46369">
        <ele>836</ele>
        <time>2020-06-24T15:15:26Z</time>
      </trkpt>
      <trkpt lat="44.32693" lon="7.46372">
        <ele>836</ele>
        <time>2020-06-24T15:15:29Z</time>
      </trkpt>
      <trkpt lat="44.32691" lon="7.46374">
        <ele>836</ele>
        <time>2020-06-24T15:15:30Z</time>
      </trkpt>
      <trkpt lat="44.32689" lon="7.46376">
        <ele>836</ele>
        <time>2020-06-24T15:15:31Z</time>
      </trkpt>
      <trkpt lat="44.32688" lon="7.46377">
        <ele>835.52</ele>
        <time>2020-06-24T15:15:32Z</time>
      </trkpt>
      <trkpt lat="44.32686" lon="7.46377">
        <ele>835.52</ele>
        <time>2020-06-24T15:15:33Z</time>
      </trkpt>
      <trkpt lat="44.32678" lon="7.4638">
        <ele>835.52</ele>
        <time>2020-06-24T15:15:38Z</time>
      </trkpt>
      <trkpt lat="44.32649" lon="7.46409">
        <ele>837.45</ele>
        <time>2020-06-24T15:15:50Z</time>
      </trkpt>
      <trkpt lat="44.32634" lon="7.46456">
        <ele>836.48</ele>
        <time>2020-06-24T15:16:02Z</time>
      </trkpt>
      <trkpt lat="44.32631" lon="7.46459">
        <ele>836.96</ele>
        <time>2020-06-24T15:16:03Z</time>
      </trkpt>
      <trkpt lat="44.32627" lon="7.46462">
        <ele>836.48</ele>
        <time>2020-06-24T15:16:04Z</time>
      </trkpt>
      <trkpt lat="44.32621" lon="7.46466">
        <ele>836.48</ele>
        <time>2020-06-24T15:16:05Z</time>
      </trkpt>
      <trkpt lat="44.32617" lon="7.46469">
        <ele>836.48</ele>
        <time>2020-06-24T15:16:06Z</time>
      </trkpt>
      <trkpt lat="44.32612" lon="7.46472">
        <ele>836</ele>
        <time>2020-06-24T15:16:07Z</time>
      </trkpt>
      <trkpt lat="44.3258" lon="7.46483">
        <ele>835.52</ele>
        <time>2020-06-24T15:16:19Z</time>
      </trkpt>
      <trkpt lat="44.32579" lon="7.46485">
        <ele>835.52</ele>
        <time>2020-06-24T15:16:20Z</time>
      </trkpt>
      <trkpt lat="44.32576" lon="7.46487">
        <ele>835.04</ele>
        <time>2020-06-24T15:16:21Z</time>
      </trkpt>
      <trkpt lat="44.32572" lon="7.46488">
        <ele>833.6</ele>
        <time>2020-06-24T15:16:22Z</time>
      </trkpt>
      <trkpt lat="44.3257" lon="7.46492">
        <ele>832.64</ele>
        <time>2020-06-24T15:16:23Z</time>
      </trkpt>
      <trkpt lat="44.32564" lon="7.46493">
        <ele>832.16</ele>
        <time>2020-06-24T15:16:24Z</time>
      </trkpt>
      <trkpt lat="44.32559" lon="7.46493">
        <ele>830.24</ele>
        <time>2020-06-24T15:16:25Z</time>
      </trkpt>
      <trkpt lat="44.32556" lon="7.46496">
        <ele>829.76</ele>
        <time>2020-06-24T15:16:26Z</time>
      </trkpt>
      <trkpt lat="44.32554" lon="7.46499">
        <ele>829.27</ele>
        <time>2020-06-24T15:16:27Z</time>
      </trkpt>
      <trkpt lat="44.32552" lon="7.46502">
        <ele>829.27</ele>
        <time>2020-06-24T15:16:28Z</time>
      </trkpt>
      <trkpt lat="44.3255" lon="7.46505">
        <ele>828.31</ele>
        <time>2020-06-24T15:16:29Z</time>
      </trkpt>
      <trkpt lat="44.32547" lon="7.46508">
        <ele>827.35</ele>
        <time>2020-06-24T15:16:30Z</time>
      </trkpt>
      <trkpt lat="44.32543" lon="7.46511">
        <ele>826.87</ele>
        <time>2020-06-24T15:16:31Z</time>
      </trkpt>
      <trkpt lat="44.32518" lon="7.46533">
        <ele>819.66</ele>
        <time>2020-06-24T15:16:44Z</time>
      </trkpt>
      <trkpt lat="44.32514" lon="7.46538">
        <ele>819.66</ele>
        <time>2020-06-24T15:16:51Z</time>
      </trkpt>
      <trkpt lat="44.32517" lon="7.46558">
        <ele>820.14</ele>
        <time>2020-06-24T15:17:02Z</time>
      </trkpt>
      <trkpt lat="44.32519" lon="7.46579">
        <ele>823.51</ele>
        <time>2020-06-24T15:17:18Z</time>
      </trkpt>
      <trkpt lat="44.32522" lon="7.46586">
        <ele>824.47</ele>
        <time>2020-06-24T15:17:23Z</time>
      </trkpt>
      <trkpt lat="44.32524" lon="7.46588">
        <ele>824.47</ele>
        <time>2020-06-24T15:17:24Z</time>
      </trkpt>
      <trkpt lat="44.32526" lon="7.46589">
        <ele>824.95</ele>
        <time>2020-06-24T15:17:25Z</time>
      </trkpt>
      <trkpt lat="44.32546" lon="7.46602">
        <ele>830.72</ele>
        <time>2020-06-24T15:17:39Z</time>
      </trkpt>
      <trkpt lat="44.3256" lon="7.4662">
        <ele>832.64</ele>
        <time>2020-06-24T15:17:53Z</time>
      </trkpt>
      <trkpt lat="44.3258" lon="7.46653">
        <ele>815.34</ele>
        <time>2020-06-24T15:18:10Z</time>
      </trkpt>
      <trkpt lat="44.32594" lon="7.46675">
        <ele>797.07</ele>
        <time>2020-06-24T15:18:26Z</time>
      </trkpt>
      <trkpt lat="44.32597" lon="7.46685">
        <ele>794.19</ele>
        <time>2020-06-24T15:18:45Z</time>
      </trkpt>
      <trkpt lat="44.32603" lon="7.46704">
        <ele>791.3</ele>
        <time>2020-06-24T15:19:00Z</time>
      </trkpt>
      <trkpt lat="44.32623" lon="7.46727">
        <ele>786.02</ele>
        <time>2020-06-24T15:19:12Z</time>
      </trkpt>
      <trkpt lat="44.32624" lon="7.46744">
        <ele>784.09</ele>
        <time>2020-06-24T15:19:18Z</time>
      </trkpt>
      <trkpt lat="44.32623" lon="7.46748">
        <ele>784.09</ele>
        <time>2020-06-24T15:19:19Z</time>
      </trkpt>
      <trkpt lat="44.32623" lon="7.46751">
        <ele>783.61</ele>
        <time>2020-06-24T15:19:20Z</time>
      </trkpt>
      <trkpt lat="44.32622" lon="7.46753">
        <ele>783.61</ele>
        <time>2020-06-24T15:19:21Z</time>
      </trkpt>
      <trkpt lat="44.32622" lon="7.46755">
        <ele>783.61</ele>
        <time>2020-06-24T15:19:22Z</time>
      </trkpt>
      <trkpt lat="44.32623" lon="7.46793">
        <ele>779.29</ele>
        <time>2020-06-24T15:19:39Z</time>
      </trkpt>
      <trkpt lat="44.32626" lon="7.46815">
        <ele>769.67</ele>
        <time>2020-06-24T15:19:56Z</time>
      </trkpt>
      <trkpt lat="44.32625" lon="7.46843">
        <ele>767.75</ele>
        <time>2020-06-24T15:20:07Z</time>
      </trkpt>
      <trkpt lat="44.32627" lon="7.46851">
        <ele>767.75</ele>
        <time>2020-06-24T15:20:10Z</time>
      </trkpt>
      <trkpt lat="44.32636" lon="7.46853">
        <ele>766.31</ele>
        <time>2020-06-24T15:20:14Z</time>
      </trkpt>
      <trkpt lat="44.32638" lon="7.46854">
        <ele>766.31</ele>
        <time>2020-06-24T15:20:16Z</time>
      </trkpt>
      <trkpt lat="44.3265" lon="7.46881">
        <ele>767.27</ele>
        <time>2020-06-24T15:20:25Z</time>
      </trkpt>
      <trkpt lat="44.32694" lon="7.46926">
        <ele>750.93</ele>
        <time>2020-06-24T15:20:39Z</time>
      </trkpt>
      <trkpt lat="44.32731" lon="7.4696">
        <ele>736.99</ele>
        <time>2020-06-24T15:20:53Z</time>
      </trkpt>
      <trkpt lat="44.32755" lon="7.46997">
        <ele>731.22</ele>
        <time>2020-06-24T15:21:04Z</time>
      </trkpt>
      <trkpt lat="44.32757" lon="7.46999">
        <ele>730.26</ele>
        <time>2020-06-24T15:21:05Z</time>
      </trkpt>
      <trkpt lat="44.32759" lon="7.47">
        <ele>729.3</ele>
        <time>2020-06-24T15:21:06Z</time>
      </trkpt>
      <trkpt lat="44.32766" lon="7.47002">
        <ele>730.26</ele>
        <time>2020-06-24T15:21:18Z</time>
      </trkpt>
      <trkpt lat="44.32779" lon="7.4701">
        <ele>731.7</ele>
        <time>2020-06-24T15:21:31Z</time>
      </trkpt>
      <trkpt lat="44.32779" lon="7.47013">
        <ele>733.62</ele>
        <time>2020-06-24T15:21:57Z</time>
      </trkpt>
      <trkpt lat="44.32778" lon="7.47012">
        <ele>734.1</ele>
        <time>2020-06-24T15:22:23Z</time>
      </trkpt>
      <trkpt lat="44.32781" lon="7.4701">
        <ele>736.51</ele>
        <time>2020-06-24T15:22:51Z</time>
      </trkpt>
      <trkpt lat="44.32782" lon="7.47011">
        <ele>735.55</ele>
        <time>2020-06-24T15:23:29Z</time>
      </trkpt>
      <trkpt lat="44.32778" lon="7.47012">
        <ele>740.83</ele>
        <time>2020-06-24T15:24:01Z</time>
      </trkpt>
      <trkpt lat="44.3278" lon="7.47016">
        <ele>739.39</ele>
        <time>2020-06-24T15:24:13Z</time>
      </trkpt>
      <trkpt lat="44.32767" lon="7.47005">
        <ele>737.95</ele>
        <time>2020-06-24T15:24:23Z</time>
      </trkpt>
      <trkpt lat="44.32768" lon="7.47001">
        <ele>737.47</ele>
        <time>2020-06-24T15:24:24Z</time>
      </trkpt>
      <trkpt lat="44.32769" lon="7.46997">
        <ele>737.47</ele>
        <time>2020-06-24T15:24:25Z</time>
      </trkpt>
      <trkpt lat="44.32772" lon="7.46995">
        <ele>737.95</ele>
        <time>2020-06-24T15:24:26Z</time>
      </trkpt>
      <trkpt lat="44.32775" lon="7.46993">
        <ele>737.95</ele>
        <time>2020-06-24T15:24:27Z</time>
      </trkpt>
      <trkpt lat="44.32779" lon="7.46993">
        <ele>737.47</ele>
        <time>2020-06-24T15:24:28Z</time>
      </trkpt>
      <trkpt lat="44.32784" lon="7.46993">
        <ele>737.47</ele>
        <time>2020-06-24T15:24:29Z</time>
      </trkpt>
      <trkpt lat="44.32789" lon="7.46992">
        <ele>737.47</ele>
        <time>2020-06-24T15:24:30Z</time>
      </trkpt>
      <trkpt lat="44.32819" lon="7.4699">
        <ele>736.03</ele>
        <time>2020-06-24T15:24:36Z</time>
      </trkpt>
      <trkpt lat="44.32824" lon="7.4699">
        <ele>736.03</ele>
        <time>2020-06-24T15:24:37Z</time>
      </trkpt>
      <trkpt lat="44.32828" lon="7.4699">
        <ele>736.03</ele>
        <time>2020-06-24T15:24:38Z</time>
      </trkpt>
      <trkpt lat="44.32838" lon="7.46992">
        <ele>735.55</ele>
        <time>2020-06-24T15:24:40Z</time>
      </trkpt>
      <trkpt lat="44.32863" lon="7.47005">
        <ele>734.58</ele>
        <time>2020-06-24T15:24:45Z</time>
      </trkpt>
      <trkpt lat="44.32883" lon="7.47023">
        <ele>732.18</ele>
        <time>2020-06-24T15:24:51Z</time>
      </trkpt>
      <trkpt lat="44.32883" lon="7.47025">
        <ele>731.7</ele>
        <time>2020-06-24T15:24:52Z</time>
      </trkpt>
      <trkpt lat="44.32883" lon="7.47029">
        <ele>731.22</ele>
        <time>2020-06-24T15:24:53Z</time>
      </trkpt>
      <trkpt lat="44.32879" lon="7.47044">
        <ele>730.74</ele>
        <time>2020-06-24T15:24:56Z</time>
      </trkpt>
      <trkpt lat="44.32877" lon="7.47048">
        <ele>730.74</ele>
        <time>2020-06-24T15:24:57Z</time>
      </trkpt>
      <trkpt lat="44.32867" lon="7.47066">
        <ele>730.26</ele>
        <time>2020-06-24T15:25:01Z</time>
      </trkpt>
      <trkpt lat="44.32864" lon="7.47072">
        <ele>730.74</ele>
        <time>2020-06-24T15:25:02Z</time>
      </trkpt>
      <trkpt lat="44.32863" lon="7.47078">
        <ele>730.74</ele>
        <time>2020-06-24T15:25:03Z</time>
      </trkpt>
      <trkpt lat="44.32857" lon="7.47102">
        <ele>730.74</ele>
        <time>2020-06-24T15:25:07Z</time>
      </trkpt>
      <trkpt lat="44.32848" lon="7.47115">
        <ele>730.26</ele>
        <time>2020-06-24T15:25:11Z</time>
      </trkpt>
      <trkpt lat="44.32846" lon="7.47119">
        <ele>730.26</ele>
        <time>2020-06-24T15:25:12Z</time>
      </trkpt>
      <trkpt lat="44.32862" lon="7.47149">
        <ele>733.62</ele>
        <time>2020-06-24T15:25:22Z</time>
      </trkpt>
      <trkpt lat="44.32866" lon="7.47155">
        <ele>734.1</ele>
        <time>2020-06-24T15:25:23Z</time>
      </trkpt>
      <trkpt lat="44.3287" lon="7.4716">
        <ele>734.1</ele>
        <time>2020-06-24T15:25:24Z</time>
      </trkpt>
      <trkpt lat="44.32875" lon="7.47165">
        <ele>734.58</ele>
        <time>2020-06-24T15:25:25Z</time>
      </trkpt>
      <trkpt lat="44.32881" lon="7.47167">
        <ele>735.07</ele>
        <time>2020-06-24T15:25:26Z</time>
      </trkpt>
      <trkpt lat="44.32886" lon="7.47169">
        <ele>735.55</ele>
        <time>2020-06-24T15:25:27Z</time>
      </trkpt>
      <trkpt lat="44.32916" lon="7.47174">
        <ele>737.95</ele>
        <time>2020-06-24T15:25:32Z</time>
      </trkpt>
      <trkpt lat="44.32922" lon="7.47176">
        <ele>738.43</ele>
        <time>2020-06-24T15:25:33Z</time>
      </trkpt>
      <trkpt lat="44.3296" lon="7.47195">
        <ele>738.91</ele>
        <time>2020-06-24T15:25:39Z</time>
      </trkpt>
      <trkpt lat="44.32966" lon="7.47199">
        <ele>739.39</ele>
        <time>2020-06-24T15:25:40Z</time>
      </trkpt>
      <trkpt lat="44.32972" lon="7.472">
        <ele>739.39</ele>
        <time>2020-06-24T15:25:41Z</time>
      </trkpt>
      <trkpt lat="44.32976" lon="7.472">
        <ele>739.39</ele>
        <time>2020-06-24T15:25:42Z</time>
      </trkpt>
      <trkpt lat="44.32981" lon="7.47198">
        <ele>739.39</ele>
        <time>2020-06-24T15:25:43Z</time>
      </trkpt>
      <trkpt lat="44.32985" lon="7.47195">
        <ele>739.39</ele>
        <time>2020-06-24T15:25:44Z</time>
      </trkpt>
      <trkpt lat="44.32989" lon="7.47192">
        <ele>739.39</ele>
        <time>2020-06-24T15:25:45Z</time>
      </trkpt>
      <trkpt lat="44.32994" lon="7.47189">
        <ele>739.39</ele>
        <time>2020-06-24T15:25:46Z</time>
      </trkpt>
      <trkpt lat="44.33" lon="7.47185">
        <ele>738.91</ele>
        <time>2020-06-24T15:25:47Z</time>
      </trkpt>
      <trkpt lat="44.33005" lon="7.47182">
        <ele>738.91</ele>
        <time>2020-06-24T15:25:48Z</time>
      </trkpt>
      <trkpt lat="44.33029" lon="7.47175">
        <ele>739.87</ele>
        <time>2020-06-24T15:25:57Z</time>
      </trkpt>
      <trkpt lat="44.33033" lon="7.47179">
        <ele>739.87</ele>
        <time>2020-06-24T15:25:58Z</time>
      </trkpt>
      <trkpt lat="44.33035" lon="7.47182">
        <ele>740.35</ele>
        <time>2020-06-24T15:25:59Z</time>
      </trkpt>
      <trkpt lat="44.3304" lon="7.47184">
        <ele>740.35</ele>
        <time>2020-06-24T15:26:00Z</time>
      </trkpt>
      <trkpt lat="44.33043" lon="7.47184">
        <ele>740.83</ele>
        <time>2020-06-24T15:26:01Z</time>
      </trkpt>
      <trkpt lat="44.33066" lon="7.47199">
        <ele>738.91</ele>
        <time>2020-06-24T15:26:07Z</time>
      </trkpt>
      <trkpt lat="44.33065" lon="7.47203">
        <ele>738.43</ele>
        <time>2020-06-24T15:26:08Z</time>
      </trkpt>
      <trkpt lat="44.33065" lon="7.47206">
        <ele>738.43</ele>
        <time>2020-06-24T15:26:09Z</time>
      </trkpt>
      <trkpt lat="44.33065" lon="7.47211">
        <ele>738.43</ele>
        <time>2020-06-24T15:26:10Z</time>
      </trkpt>
      <trkpt lat="44.33066" lon="7.47215">
        <ele>737.95</ele>
        <time>2020-06-24T15:26:11Z</time>
      </trkpt>
      <trkpt lat="44.33066" lon="7.47218">
        <ele>737.95</ele>
        <time>2020-06-24T15:26:12Z</time>
      </trkpt>
      <trkpt lat="44.33067" lon="7.47223">
        <ele>736.99</ele>
        <time>2020-06-24T15:26:13Z</time>
      </trkpt>
      <trkpt lat="44.33069" lon="7.47227">
        <ele>736.99</ele>
        <time>2020-06-24T15:26:14Z</time>
      </trkpt>
      <trkpt lat="44.33073" lon="7.4723">
        <ele>736.99</ele>
        <time>2020-06-24T15:26:15Z</time>
      </trkpt>
      <trkpt lat="44.33077" lon="7.47231">
        <ele>736.99</ele>
        <time>2020-06-24T15:26:16Z</time>
      </trkpt>
      <trkpt lat="44.33082" lon="7.47231">
        <ele>736.99</ele>
        <time>2020-06-24T15:26:17Z</time>
      </trkpt>
      <trkpt lat="44.33086" lon="7.47232">
        <ele>736.99</ele>
        <time>2020-06-24T15:26:18Z</time>
      </trkpt>
      <trkpt lat="44.3309" lon="7.47234">
        <ele>736.99</ele>
        <time>2020-06-24T15:26:19Z</time>
      </trkpt>
      <trkpt lat="44.33094" lon="7.47234">
        <ele>737.47</ele>
        <time>2020-06-24T15:26:20Z</time>
      </trkpt>
      <trkpt lat="44.33098" lon="7.47235">
        <ele>737.47</ele>
        <time>2020-06-24T15:26:21Z</time>
      </trkpt>
      <trkpt lat="44.33106" lon="7.47233">
        <ele>734.1</ele>
        <time>2020-06-24T15:26:23Z</time>
      </trkpt>
      <trkpt lat="44.33109" lon="7.47236">
        <ele>731.7</ele>
        <time>2020-06-24T15:26:24Z</time>
      </trkpt>
      <trkpt lat="44.33113" lon="7.47245">
        <ele>728.82</ele>
        <time>2020-06-24T15:26:26Z</time>
      </trkpt>
      <trkpt lat="44.3312" lon="7.47336">
        <ele>696.61</ele>
        <time>2020-06-24T15:26:37Z</time>
      </trkpt>
      <trkpt lat="44.33109" lon="7.47396">
        <ele>685.08</ele>
        <time>2020-06-24T15:26:45Z</time>
      </trkpt>
      <trkpt lat="44.3311" lon="7.47403">
        <ele>684.6</ele>
        <time>2020-06-24T15:26:46Z</time>
      </trkpt>
      <trkpt lat="44.3313" lon="7.47483">
        <ele>680.27</ele>
        <time>2020-06-24T15:26:57Z</time>
      </trkpt>
      <trkpt lat="44.33131" lon="7.47491">
        <ele>680.27</ele>
        <time>2020-06-24T15:26:58Z</time>
      </trkpt>
      <trkpt lat="44.33131" lon="7.475">
        <ele>680.27</ele>
        <time>2020-06-24T15:26:59Z</time>
      </trkpt>
      <trkpt lat="44.33131" lon="7.47509">
        <ele>680.27</ele>
        <time>2020-06-24T15:27:00Z</time>
      </trkpt>
      <trkpt lat="44.3313" lon="7.47517">
        <ele>680.27</ele>
        <time>2020-06-24T15:27:01Z</time>
      </trkpt>
      <trkpt lat="44.33129" lon="7.47525">
        <ele>680.27</ele>
        <time>2020-06-24T15:27:02Z</time>
      </trkpt>
      <trkpt lat="44.33128" lon="7.47533">
        <ele>680.27</ele>
        <time>2020-06-24T15:27:03Z</time>
      </trkpt>
      <trkpt lat="44.33123" lon="7.47549">
        <ele>680.27</ele>
        <time>2020-06-24T15:27:05Z</time>
      </trkpt>
      <trkpt lat="44.33118" lon="7.47555">
        <ele>680.27</ele>
        <time>2020-06-24T15:27:06Z</time>
      </trkpt>
      <trkpt lat="44.3308" lon="7.47593">
        <ele>678.35</ele>
        <time>2020-06-24T15:27:14Z</time>
      </trkpt>
      <trkpt lat="44.33071" lon="7.47602">
        <ele>677.39</ele>
        <time>2020-06-24T15:27:16Z</time>
      </trkpt>
      <trkpt lat="44.3306" lon="7.47619">
        <ele>677.39</ele>
        <time>2020-06-24T15:27:19Z</time>
      </trkpt>
      <trkpt lat="44.33057" lon="7.47625">
        <ele>677.39</ele>
        <time>2020-06-24T15:27:20Z</time>
      </trkpt>
      <trkpt lat="44.33046" lon="7.47659">
        <ele>676.91</ele>
        <time>2020-06-24T15:27:25Z</time>
      </trkpt>
      <trkpt lat="44.33033" lon="7.47698">
        <ele>674.02</ele>
        <time>2020-06-24T15:27:31Z</time>
      </trkpt>
      <trkpt lat="44.33032" lon="7.47707">
        <ele>673.54</ele>
        <time>2020-06-24T15:27:32Z</time>
      </trkpt>
      <trkpt lat="44.33025" lon="7.47793">
        <ele>669.22</ele>
        <time>2020-06-24T15:27:42Z</time>
      </trkpt>
      <trkpt lat="44.33016" lon="7.47859">
        <ele>667.29</ele>
        <time>2020-06-24T15:27:49Z</time>
      </trkpt>
      <trkpt lat="44.33009" lon="7.4796">
        <ele>665.85</ele>
        <time>2020-06-24T15:28:02Z</time>
      </trkpt>
      <trkpt lat="44.33011" lon="7.48004">
        <ele>663.93</ele>
        <time>2020-06-24T15:28:08Z</time>
      </trkpt>
      <trkpt lat="44.33013" lon="7.48011">
        <ele>663.45</ele>
        <time>2020-06-24T15:28:09Z</time>
      </trkpt>
      <trkpt lat="44.33016" lon="7.48015">
        <ele>662.49</ele>
        <time>2020-06-24T15:28:10Z</time>
      </trkpt>
      <trkpt lat="44.33019" lon="7.48017">
        <ele>662.01</ele>
        <time>2020-06-24T15:28:11Z</time>
      </trkpt>
      <trkpt lat="44.33023" lon="7.48018">
        <ele>661.52</ele>
        <time>2020-06-24T15:28:12Z</time>
      </trkpt>
      <trkpt lat="44.33027" lon="7.48019">
        <ele>660.56</ele>
        <time>2020-06-24T15:28:13Z</time>
      </trkpt>
      <trkpt lat="44.33092" lon="7.48031">
        <ele>658.64</ele>
        <time>2020-06-24T15:28:26Z</time>
      </trkpt>
      <trkpt lat="44.33095" lon="7.48031">
        <ele>657.68</ele>
        <time>2020-06-24T15:28:27Z</time>
      </trkpt>
      <trkpt lat="44.33097" lon="7.48032">
        <ele>657.2</ele>
        <time>2020-06-24T15:28:28Z</time>
      </trkpt>
      <trkpt lat="44.33098" lon="7.48034">
        <ele>657.2</ele>
        <time>2020-06-24T15:28:29Z</time>
      </trkpt>
      <trkpt lat="44.33098" lon="7.48039">
        <ele>657.68</ele>
        <time>2020-06-24T15:28:30Z</time>
      </trkpt>
      <trkpt lat="44.33098" lon="7.48043">
        <ele>657.68</ele>
        <time>2020-06-24T15:28:31Z</time>
      </trkpt>
      <trkpt lat="44.33097" lon="7.48049">
        <ele>657.68</ele>
        <time>2020-06-24T15:28:32Z</time>
      </trkpt>
      <trkpt lat="44.33096" lon="7.48067">
        <ele>659.12</ele>
        <time>2020-06-24T15:28:35Z</time>
      </trkpt>
      <trkpt lat="44.33094" lon="7.48072">
        <ele>659.12</ele>
        <time>2020-06-24T15:28:36Z</time>
      </trkpt>
      <trkpt lat="44.33074" lon="7.48164">
        <ele>662.01</ele>
        <time>2020-06-24T15:28:50Z</time>
      </trkpt>
      <trkpt lat="44.33069" lon="7.48185">
        <ele>661.52</ele>
        <time>2020-06-24T15:28:53Z</time>
      </trkpt>
      <trkpt lat="44.33068" lon="7.48191">
        <ele>662.01</ele>
        <time>2020-06-24T15:28:54Z</time>
      </trkpt>
      <trkpt lat="44.33064" lon="7.48211">
        <ele>661.04</ele>
        <time>2020-06-24T15:28:57Z</time>
      </trkpt>
      <trkpt lat="44.33064" lon="7.48218">
        <ele>661.04</ele>
        <time>2020-06-24T15:28:58Z</time>
      </trkpt>
      <trkpt lat="44.33065" lon="7.48223">
        <ele>661.04</ele>
        <time>2020-06-24T15:28:59Z</time>
      </trkpt>
      <trkpt lat="44.33067" lon="7.48226">
        <ele>661.04</ele>
        <time>2020-06-24T15:29:00Z</time>
      </trkpt>
      <trkpt lat="44.3307" lon="7.48226">
        <ele>661.04</ele>
        <time>2020-06-24T15:29:01Z</time>
      </trkpt>
      <trkpt lat="44.33074" lon="7.48224">
        <ele>661.04</ele>
        <time>2020-06-24T15:29:02Z</time>
      </trkpt>
      <trkpt lat="44.33077" lon="7.48223">
        <ele>661.04</ele>
        <time>2020-06-24T15:29:03Z</time>
      </trkpt>
      <trkpt lat="44.33081" lon="7.48222">
        <ele>661.04</ele>
        <time>2020-06-24T15:29:04Z</time>
      </trkpt>
      <trkpt lat="44.33093" lon="7.48216">
        <ele>660.56</ele>
        <time>2020-06-24T15:29:07Z</time>
      </trkpt>
      <trkpt lat="44.33098" lon="7.48216">
        <ele>660.08</ele>
        <time>2020-06-24T15:29:08Z</time>
      </trkpt>
      <trkpt lat="44.33103" lon="7.48217">
        <ele>659.6</ele>
        <time>2020-06-24T15:29:09Z</time>
      </trkpt>
      <trkpt lat="44.33108" lon="7.48218">
        <ele>659.12</ele>
        <time>2020-06-24T15:29:10Z</time>
      </trkpt>
      <trkpt lat="44.33113" lon="7.48219">
        <ele>659.12</ele>
        <time>2020-06-24T15:29:11Z</time>
      </trkpt>
      <trkpt lat="44.33128" lon="7.48223">
        <ele>658.64</ele>
        <time>2020-06-24T15:29:14Z</time>
      </trkpt>
      <trkpt lat="44.33185" lon="7.48236">
        <ele>659.12</ele>
        <time>2020-06-24T15:29:25Z</time>
      </trkpt>
      <trkpt lat="44.3319" lon="7.48238">
        <ele>659.6</ele>
        <time>2020-06-24T15:29:26Z</time>
      </trkpt>
      <trkpt lat="44.33206" lon="7.48244">
        <ele>660.08</ele>
        <time>2020-06-24T15:29:29Z</time>
      </trkpt>
      <trkpt lat="44.3329" lon="7.48261">
        <ele>659.6</ele>
        <time>2020-06-24T15:29:45Z</time>
      </trkpt>
      <trkpt lat="44.33365" lon="7.4827">
        <ele>658.64</ele>
        <time>2020-06-24T15:30:01Z</time>
      </trkpt>
      <trkpt lat="44.33422" lon="7.48275">
        <ele>658.64</ele>
        <time>2020-06-24T15:30:14Z</time>
      </trkpt>
      <trkpt lat="44.33502" lon="7.4829">
        <ele>658.16</ele>
        <time>2020-06-24T15:30:32Z</time>
      </trkpt>
      <trkpt lat="44.33527" lon="7.48306">
        <ele>657.68</ele>
        <time>2020-06-24T15:30:40Z</time>
      </trkpt>
      <trkpt lat="44.33531" lon="7.48304">
        <ele>657.68</ele>
        <time>2020-06-24T15:30:41Z</time>
      </trkpt>
      <trkpt lat="44.33593" lon="7.48251">
        <ele>655.76</ele>
        <time>2020-06-24T15:30:59Z</time>
      </trkpt>
      <trkpt lat="44.33641" lon="7.4818">
        <ele>653.35</ele>
        <time>2020-06-24T15:31:16Z</time>
      </trkpt>
      <trkpt lat="44.33672" lon="7.48122">
        <ele>651.43</ele>
        <time>2020-06-24T15:31:29Z</time>
      </trkpt>
      <trkpt lat="44.33698" lon="7.48036">
        <ele>651.43</ele>
        <time>2020-06-24T15:31:45Z</time>
      </trkpt>
      <trkpt lat="44.33703" lon="7.48026">
        <ele>651.43</ele>
        <time>2020-06-24T15:31:47Z</time>
      </trkpt>
      <trkpt lat="44.33711" lon="7.48012">
        <ele>651.91</ele>
        <time>2020-06-24T15:31:50Z</time>
      </trkpt>
      <trkpt lat="44.33723" lon="7.47996">
        <ele>651.91</ele>
        <time>2020-06-24T15:31:54Z</time>
      </trkpt>
      <trkpt lat="44.33732" lon="7.47992">
        <ele>652.39</ele>
        <time>2020-06-24T15:31:56Z</time>
      </trkpt>
      <trkpt lat="44.33736" lon="7.47989">
        <ele>652.87</ele>
        <time>2020-06-24T15:31:57Z</time>
      </trkpt>
      <trkpt lat="44.33739" lon="7.47985">
        <ele>652.87</ele>
        <time>2020-06-24T15:31:58Z</time>
      </trkpt>
      <trkpt lat="44.33742" lon="7.47981">
        <ele>652.87</ele>
        <time>2020-06-24T15:31:59Z</time>
      </trkpt>
      <trkpt lat="44.33744" lon="7.47975">
        <ele>652.87</ele>
        <time>2020-06-24T15:32:00Z</time>
      </trkpt>
      <trkpt lat="44.33745" lon="7.47969">
        <ele>652.87</ele>
        <time>2020-06-24T15:32:01Z</time>
      </trkpt>
      <trkpt lat="44.33745" lon="7.47963">
        <ele>652.87</ele>
        <time>2020-06-24T15:32:02Z</time>
      </trkpt>
      <trkpt lat="44.33744" lon="7.47957">
        <ele>652.87</ele>
        <time>2020-06-24T15:32:03Z</time>
      </trkpt>
      <trkpt lat="44.33744" lon="7.47951">
        <ele>652.87</ele>
        <time>2020-06-24T15:32:04Z</time>
      </trkpt>
      <trkpt lat="44.33745" lon="7.47945">
        <ele>652.87</ele>
        <time>2020-06-24T15:32:05Z</time>
      </trkpt>
      <trkpt lat="44.33747" lon="7.4794">
        <ele>653.35</ele>
        <time>2020-06-24T15:32:06Z</time>
      </trkpt>
      <trkpt lat="44.33749" lon="7.47934">
        <ele>653.35</ele>
        <time>2020-06-24T15:32:07Z</time>
      </trkpt>
      <trkpt lat="44.33765" lon="7.47904">
        <ele>652.39</ele>
        <time>2020-06-24T15:32:13Z</time>
      </trkpt>
      <trkpt lat="44.33822" lon="7.47825">
        <ele>653.83</ele>
        <time>2020-06-24T15:32:31Z</time>
      </trkpt>
      <trkpt lat="44.33882" lon="7.47748">
        <ele>654.8</ele>
        <time>2020-06-24T15:32:49Z</time>
      </trkpt>
      <trkpt lat="44.33947" lon="7.47667">
        <ele>654.31</ele>
        <time>2020-06-24T15:33:06Z</time>
      </trkpt>
      <trkpt lat="44.34029" lon="7.47605">
        <ele>653.35</ele>
        <time>2020-06-24T15:33:19Z</time>
      </trkpt>
      <trkpt lat="44.34144" lon="7.47575">
        <ele>650.47</ele>
        <time>2020-06-24T15:33:32Z</time>
      </trkpt>
      <trkpt lat="44.34246" lon="7.47556">
        <ele>643.26</ele>
        <time>2020-06-24T15:33:41Z</time>
      </trkpt>
      <trkpt lat="44.34257" lon="7.47557">
        <ele>642.78</ele>
        <time>2020-06-24T15:33:42Z</time>
      </trkpt>
      <trkpt lat="44.34268" lon="7.4756">
        <ele>641.82</ele>
        <time>2020-06-24T15:33:43Z</time>
      </trkpt>
      <trkpt lat="44.3428" lon="7.47565">
        <ele>641.34</ele>
        <time>2020-06-24T15:33:44Z</time>
      </trkpt>
      <trkpt lat="44.3429" lon="7.47571">
        <ele>640.38</ele>
        <time>2020-06-24T15:33:45Z</time>
      </trkpt>
      <trkpt lat="44.343" lon="7.47578">
        <ele>639.89</ele>
        <time>2020-06-24T15:33:46Z</time>
      </trkpt>
      <trkpt lat="44.3431" lon="7.47586">
        <ele>639.41</ele>
        <time>2020-06-24T15:33:47Z</time>
      </trkpt>
      <trkpt lat="44.34319" lon="7.47595">
        <ele>638.45</ele>
        <time>2020-06-24T15:33:48Z</time>
      </trkpt>
      <trkpt lat="44.34392" lon="7.47674">
        <ele>634.61</ele>
        <time>2020-06-24T15:33:56Z</time>
      </trkpt>
      <trkpt lat="44.34403" lon="7.4768">
        <ele>634.13</ele>
        <time>2020-06-24T15:33:57Z</time>
      </trkpt>
      <trkpt lat="44.34414" lon="7.47684">
        <ele>633.65</ele>
        <time>2020-06-24T15:33:58Z</time>
      </trkpt>
      <trkpt lat="44.34425" lon="7.47685">
        <ele>633.17</ele>
        <time>2020-06-24T15:33:59Z</time>
      </trkpt>
      <trkpt lat="44.34437" lon="7.47684">
        <ele>632.68</ele>
        <time>2020-06-24T15:34:00Z</time>
      </trkpt>
      <trkpt lat="44.34449" lon="7.47682">
        <ele>632.2</ele>
        <time>2020-06-24T15:34:01Z</time>
      </trkpt>
      <trkpt lat="44.3446" lon="7.47677">
        <ele>631.72</ele>
        <time>2020-06-24T15:34:02Z</time>
      </trkpt>
      <trkpt lat="44.3447" lon="7.47671">
        <ele>631.24</ele>
        <time>2020-06-24T15:34:03Z</time>
      </trkpt>
      <trkpt lat="44.3448" lon="7.47663">
        <ele>630.76</ele>
        <time>2020-06-24T15:34:04Z</time>
      </trkpt>
      <trkpt lat="44.34489" lon="7.47654">
        <ele>630.28</ele>
        <time>2020-06-24T15:34:05Z</time>
      </trkpt>
      <trkpt lat="44.34496" lon="7.47642">
        <ele>629.8</ele>
        <time>2020-06-24T15:34:06Z</time>
      </trkpt>
      <trkpt lat="44.34504" lon="7.47629">
        <ele>628.84</ele>
        <time>2020-06-24T15:34:07Z</time>
      </trkpt>
      <trkpt lat="44.3451" lon="7.47615">
        <ele>628.36</ele>
        <time>2020-06-24T15:34:08Z</time>
      </trkpt>
      <trkpt lat="44.34514" lon="7.47599">
        <ele>627.4</ele>
        <time>2020-06-24T15:34:09Z</time>
      </trkpt>
      <trkpt lat="44.34517" lon="7.47582">
        <ele>626.44</ele>
        <time>2020-06-24T15:34:10Z</time>
      </trkpt>
      <trkpt lat="44.3452" lon="7.47565">
        <ele>625.96</ele>
        <time>2020-06-24T15:34:11Z</time>
      </trkpt>
      <trkpt lat="44.34541" lon="7.47444">
        <ele>621.15</ele>
        <time>2020-06-24T15:34:18Z</time>
      </trkpt>
      <trkpt lat="44.34546" lon="7.47428">
        <ele>620.67</ele>
        <time>2020-06-24T15:34:19Z</time>
      </trkpt>
      <trkpt lat="44.34553" lon="7.47413">
        <ele>620.19</ele>
        <time>2020-06-24T15:34:20Z</time>
      </trkpt>
      <trkpt lat="44.34561" lon="7.47399">
        <ele>619.23</ele>
        <time>2020-06-24T15:34:21Z</time>
      </trkpt>
      <trkpt lat="44.34569" lon="7.47388">
        <ele>618.75</ele>
        <time>2020-06-24T15:34:22Z</time>
      </trkpt>
      <trkpt lat="44.34579" lon="7.47376">
        <ele>618.26</ele>
        <time>2020-06-24T15:34:23Z</time>
      </trkpt>
      <trkpt lat="44.3459" lon="7.47367">
        <ele>616.82</ele>
        <time>2020-06-24T15:34:24Z</time>
      </trkpt>
      <trkpt lat="44.34601" lon="7.4736">
        <ele>616.34</ele>
        <time>2020-06-24T15:34:25Z</time>
      </trkpt>
      <trkpt lat="44.34612" lon="7.47353">
        <ele>615.38</ele>
        <time>2020-06-24T15:34:26Z</time>
      </trkpt>
      <trkpt lat="44.34623" lon="7.47349">
        <ele>614.9</ele>
        <time>2020-06-24T15:34:27Z</time>
      </trkpt>
      <trkpt lat="44.34635" lon="7.47345">
        <ele>614.9</ele>
        <time>2020-06-24T15:34:28Z</time>
      </trkpt>
      <trkpt lat="44.34696" lon="7.47332">
        <ele>613.46</ele>
        <time>2020-06-24T15:34:35Z</time>
      </trkpt>
      <trkpt lat="44.34703" lon="7.47333">
        <ele>613.94</ele>
        <time>2020-06-24T15:34:36Z</time>
      </trkpt>
      <trkpt lat="44.34709" lon="7.47336">
        <ele>613.94</ele>
        <time>2020-06-24T15:34:37Z</time>
      </trkpt>
      <trkpt lat="44.34715" lon="7.4734">
        <ele>613.94</ele>
        <time>2020-06-24T15:34:38Z</time>
      </trkpt>
      <trkpt lat="44.34719" lon="7.47345">
        <ele>614.42</ele>
        <time>2020-06-24T15:34:39Z</time>
      </trkpt>
      <trkpt lat="44.34723" lon="7.47351">
        <ele>614.42</ele>
        <time>2020-06-24T15:34:40Z</time>
      </trkpt>
      <trkpt lat="44.34726" lon="7.47358">
        <ele>614.42</ele>
        <time>2020-06-24T15:34:41Z</time>
      </trkpt>
      <trkpt lat="44.34728" lon="7.47365">
        <ele>614.42</ele>
        <time>2020-06-24T15:34:42Z</time>
      </trkpt>
      <trkpt lat="44.3473" lon="7.47372">
        <ele>614.42</ele>
        <time>2020-06-24T15:34:43Z</time>
      </trkpt>
      <trkpt lat="44.34731" lon="7.47379">
        <ele>614.42</ele>
        <time>2020-06-24T15:34:44Z</time>
      </trkpt>
      <trkpt lat="44.34731" lon="7.47386">
        <ele>614.42</ele>
        <time>2020-06-24T15:34:45Z</time>
      </trkpt>
      <trkpt lat="44.34739" lon="7.47491">
        <ele>614.42</ele>
        <time>2020-06-24T15:35:03Z</time>
      </trkpt>
      <trkpt lat="44.34761" lon="7.47572">
        <ele>614.9</ele>
        <time>2020-06-24T15:35:20Z</time>
      </trkpt>
      <trkpt lat="44.34813" lon="7.47633">
        <ele>616.82</ele>
        <time>2020-06-24T15:35:41Z</time>
      </trkpt>
      <trkpt lat="44.34874" lon="7.47648">
        <ele>618.26</ele>
        <time>2020-06-24T15:36:00Z</time>
      </trkpt>
      <trkpt lat="44.34929" lon="7.47649">
        <ele>622.59</ele>
        <time>2020-06-24T15:36:21Z</time>
      </trkpt>
      <trkpt lat="44.34977" lon="7.47649">
        <ele>627.4</ele>
        <time>2020-06-24T15:36:41Z</time>
      </trkpt>
      <trkpt lat="44.35029" lon="7.47657">
        <ele>630.28</ele>
        <time>2020-06-24T15:36:59Z</time>
      </trkpt>
      <trkpt lat="44.35081" lon="7.47676">
        <ele>632.68</ele>
        <time>2020-06-24T15:37:15Z</time>
      </trkpt>
      <trkpt lat="44.35142" lon="7.47704">
        <ele>631.72</ele>
        <time>2020-06-24T15:37:33Z</time>
      </trkpt>
      <trkpt lat="44.35214" lon="7.47735">
        <ele>632.2</ele>
        <time>2020-06-24T15:37:53Z</time>
      </trkpt>
      <trkpt lat="44.35284" lon="7.4777">
        <ele>635.57</ele>
        <time>2020-06-24T15:38:14Z</time>
      </trkpt>
      <trkpt lat="44.35344" lon="7.47798">
        <ele>638.45</ele>
        <time>2020-06-24T15:38:32Z</time>
      </trkpt>
      <trkpt lat="44.35407" lon="7.47826">
        <ele>638.45</ele>
        <time>2020-06-24T15:38:50Z</time>
      </trkpt>
      <trkpt lat="44.35467" lon="7.47853">
        <ele>636.53</ele>
        <time>2020-06-24T15:39:06Z</time>
      </trkpt>
      <trkpt lat="44.35479" lon="7.47858">
        <ele>637.01</ele>
        <time>2020-06-24T15:39:09Z</time>
      </trkpt>
      <trkpt lat="44.35546" lon="7.47899">
        <ele>635.09</ele>
        <time>2020-06-24T15:39:26Z</time>
      </trkpt>
      <trkpt lat="44.35551" lon="7.47898">
        <ele>635.09</ele>
        <time>2020-06-24T15:39:27Z</time>
      </trkpt>
      <trkpt lat="44.35554" lon="7.47896">
        <ele>635.09</ele>
        <time>2020-06-24T15:39:28Z</time>
      </trkpt>
      <trkpt lat="44.35557" lon="7.47893">
        <ele>635.09</ele>
        <time>2020-06-24T15:39:29Z</time>
      </trkpt>
      <trkpt lat="44.3556" lon="7.47889">
        <ele>635.09</ele>
        <time>2020-06-24T15:39:30Z</time>
      </trkpt>
      <trkpt lat="44.35562" lon="7.47885">
        <ele>635.09</ele>
        <time>2020-06-24T15:39:31Z</time>
      </trkpt>
      <trkpt lat="44.35564" lon="7.47881">
        <ele>634.61</ele>
        <time>2020-06-24T15:39:32Z</time>
      </trkpt>
      <trkpt lat="44.35591" lon="7.47859">
        <ele>637.01</ele>
        <time>2020-06-24T15:39:43Z</time>
      </trkpt>
      <trkpt lat="44.35645" lon="7.47837">
        <ele>641.34</ele>
        <time>2020-06-24T15:40:03Z</time>
      </trkpt>
      <trkpt lat="44.3573" lon="7.47795">
        <ele>641.82</ele>
        <time>2020-06-24T15:40:25Z</time>
      </trkpt>
      <trkpt lat="44.35823" lon="7.47749">
        <ele>641.82</ele>
        <time>2020-06-24T15:40:44Z</time>
      </trkpt>
      <trkpt lat="44.35939" lon="7.47692">
        <ele>641.34</ele>
        <time>2020-06-24T15:41:05Z</time>
      </trkpt>
      <trkpt lat="44.36048" lon="7.47638">
        <ele>640.38</ele>
        <time>2020-06-24T15:41:24Z</time>
      </trkpt>
      <trkpt lat="44.36071" lon="7.47628">
        <ele>639.89</ele>
        <time>2020-06-24T15:41:28Z</time>
      </trkpt>
      <trkpt lat="44.36076" lon="7.47627">
        <ele>639.89</ele>
        <time>2020-06-24T15:41:29Z</time>
      </trkpt>
      <trkpt lat="44.36082" lon="7.47627">
        <ele>639.89</ele>
        <time>2020-06-24T15:41:30Z</time>
      </trkpt>
      <trkpt lat="44.36088" lon="7.47628">
        <ele>639.89</ele>
        <time>2020-06-24T15:41:31Z</time>
      </trkpt>
      <trkpt lat="44.36094" lon="7.47627">
        <ele>639.89</ele>
        <time>2020-06-24T15:41:32Z</time>
      </trkpt>
      <trkpt lat="44.36099" lon="7.47623">
        <ele>639.41</ele>
        <time>2020-06-24T15:41:33Z</time>
      </trkpt>
      <trkpt lat="44.36101" lon="7.47617">
        <ele>639.41</ele>
        <time>2020-06-24T15:41:34Z</time>
      </trkpt>
      <trkpt lat="44.36102" lon="7.4761">
        <ele>638.93</ele>
        <time>2020-06-24T15:41:35Z</time>
      </trkpt>
      <trkpt lat="44.36101" lon="7.47603">
        <ele>638.93</ele>
        <time>2020-06-24T15:41:36Z</time>
      </trkpt>
      <trkpt lat="44.36099" lon="7.47597">
        <ele>637.97</ele>
        <time>2020-06-24T15:41:37Z</time>
      </trkpt>
      <trkpt lat="44.36096" lon="7.4759">
        <ele>637.49</ele>
        <time>2020-06-24T15:41:38Z</time>
      </trkpt>
      <trkpt lat="44.36094" lon="7.47584">
        <ele>637.01</ele>
        <time>2020-06-24T15:41:39Z</time>
      </trkpt>
      <trkpt lat="44.36093" lon="7.47577">
        <ele>637.01</ele>
        <time>2020-06-24T15:41:40Z</time>
      </trkpt>
      <trkpt lat="44.36092" lon="7.4757">
        <ele>636.53</ele>
        <time>2020-06-24T15:41:41Z</time>
      </trkpt>
      <trkpt lat="44.36081" lon="7.47469">
        <ele>636.53</ele>
        <time>2020-06-24T15:41:57Z</time>
      </trkpt>
      <trkpt lat="44.36066" lon="7.47398">
        <ele>635.57</ele>
        <time>2020-06-24T15:42:11Z</time>
      </trkpt>
      <trkpt lat="44.36066" lon="7.47394">
        <ele>635.57</ele>
        <time>2020-06-24T15:42:12Z</time>
      </trkpt>
      <trkpt lat="44.36069" lon="7.47389">
        <ele>635.57</ele>
        <time>2020-06-24T15:42:13Z</time>
      </trkpt>
      <trkpt lat="44.3609" lon="7.47372">
        <ele>636.53</ele>
        <time>2020-06-24T15:42:19Z</time>
      </trkpt>
      <trkpt lat="44.36094" lon="7.47369">
        <ele>636.53</ele>
        <time>2020-06-24T15:42:20Z</time>
      </trkpt>
      <trkpt lat="44.36098" lon="7.47365">
        <ele>636.05</ele>
        <time>2020-06-24T15:42:21Z</time>
      </trkpt>
      <trkpt lat="44.36106" lon="7.47356">
        <ele>635.57</ele>
        <time>2020-06-24T15:42:23Z</time>
      </trkpt>
      <trkpt lat="44.36126" lon="7.47335">
        <ele>636.05</ele>
        <time>2020-06-24T15:42:28Z</time>
      </trkpt>
      <trkpt lat="44.3613" lon="7.47331">
        <ele>636.05</ele>
        <time>2020-06-24T15:42:29Z</time>
      </trkpt>
      <trkpt lat="44.36142" lon="7.47318">
        <ele>635.57</ele>
        <time>2020-06-24T15:42:32Z</time>
      </trkpt>
      <trkpt lat="44.36147" lon="7.47314">
        <ele>635.57</ele>
        <time>2020-06-24T15:42:33Z</time>
      </trkpt>
      <trkpt lat="44.36167" lon="7.47292">
        <ele>635.09</ele>
        <time>2020-06-24T15:42:38Z</time>
      </trkpt>
      <trkpt lat="44.36182" lon="7.47276">
        <ele>634.61</ele>
        <time>2020-06-24T15:42:42Z</time>
      </trkpt>
      <trkpt lat="44.36188" lon="7.47275">
        <ele>635.09</ele>
        <time>2020-06-24T15:42:43Z</time>
      </trkpt>
      <trkpt lat="44.36193" lon="7.47277">
        <ele>635.09</ele>
        <time>2020-06-24T15:42:44Z</time>
      </trkpt>
      <trkpt lat="44.36228" lon="7.47303">
        <ele>634.13</ele>
        <time>2020-06-24T15:42:53Z</time>
      </trkpt>
      <trkpt lat="44.36238" lon="7.47315">
        <ele>633.65</ele>
        <time>2020-06-24T15:42:56Z</time>
      </trkpt>
      <trkpt lat="44.3628" lon="7.47342">
        <ele>631.72</ele>
        <time>2020-06-24T15:43:08Z</time>
      </trkpt>
      <trkpt lat="44.36282" lon="7.47342">
        <ele>631.72</ele>
        <time>2020-06-24T15:43:09Z</time>
      </trkpt>
      <trkpt lat="44.36282" lon="7.47342">
        <ele>630.76</ele>
        <time>2020-06-24T15:43:21Z</time>
      </trkpt>
      <trkpt lat="44.3628" lon="7.47335">
        <ele>628.84</ele>
        <time>2020-06-24T15:43:43Z</time>
      </trkpt>
      <trkpt lat="44.3628" lon="7.47332">
        <ele>628.84</ele>
        <time>2020-06-24T15:43:47Z</time>
      </trkpt>
      <trkpt lat="44.36281" lon="7.4733">
        <ele>628.84</ele>
        <time>2020-06-24T15:43:48Z</time>
      </trkpt>
      <trkpt lat="44.36284" lon="7.47325">
        <ele>628.84</ele>
        <time>2020-06-24T15:44:02Z</time>
      </trkpt>
      <trkpt lat="44.36286" lon="7.47341">
        <ele>626.44</ele>
        <time>2020-06-24T15:44:30Z</time>
      </trkpt>
    </trkseg>
  </trk>
</gpx>